<?xml version="1.0" encoding="UTF-8" standalone="no" ?>
<gpx xmlns="http://www.topografix.com/GPX/1/1" xmlns:xsi="http://www.w3.org/2001/XMLSchema-instance" xsi:schemaLocation="http://www.topografix.com/GPX/1/1 http://www.topografix.com/GPX/1/1/gpx.xsd" version="1.1" creator="VisuGPX - https://www.visugpx.com">
  <metadata>
    <name>le taoulet d\'Aouet</name>
    <desc><![CDATA[vue magnifique depuis le sommet 
pas un nuage dans le ciel et température >20°C pour un 30 Octobre]]></desc>
  </metadata>
  <trk>
    <name><![CDATA[le taoulet d\'Aouet_1]]></name>
    <trkseg>
      <trkpt lat="42.92535" lon="0.19301">
        <ele>1420</ele>
        <time>2015-10-30T08:08:15Z</time>
      </trkpt>
      <trkpt lat="42.92535" lon="0.19301">
        <ele>1420</ele>
        <time>2015-10-30T08:08:16Z</time>
      </trkpt>
      <trkpt lat="42.92534" lon="0.19298">
        <ele>1420</ele>
        <time>2015-10-30T08:08:29Z</time>
      </trkpt>
      <trkpt lat="42.92533" lon="0.19296">
        <ele>1419</ele>
        <time>2015-10-30T08:08:31Z</time>
      </trkpt>
      <trkpt lat="42.92534" lon="0.19293">
        <ele>1420</ele>
        <time>2015-10-30T08:09:58Z</time>
      </trkpt>
      <trkpt lat="42.92532" lon="0.1928">
        <ele>1420</ele>
        <time>2015-10-30T08:10:06Z</time>
      </trkpt>
      <trkpt lat="42.9254" lon="0.19245">
        <ele>1420</ele>
        <time>2015-10-30T08:10:36Z</time>
      </trkpt>
      <trkpt lat="42.92546" lon="0.19204">
        <ele>1424</ele>
        <time>2015-10-30T08:11:07Z</time>
      </trkpt>
      <trkpt lat="42.92553" lon="0.1917">
        <ele>1428</ele>
        <time>2015-10-30T08:11:38Z</time>
      </trkpt>
      <trkpt lat="42.92564" lon="0.19134">
        <ele>1429</ele>
        <time>2015-10-30T08:12:09Z</time>
      </trkpt>
      <trkpt lat="42.92575" lon="0.19095">
        <ele>1436</ele>
        <time>2015-10-30T08:12:40Z</time>
      </trkpt>
      <trkpt lat="42.92585" lon="0.19058">
        <ele>1438</ele>
        <time>2015-10-30T08:13:11Z</time>
      </trkpt>
      <trkpt lat="42.92597" lon="0.19026">
        <ele>1440</ele>
        <time>2015-10-30T08:13:43Z</time>
      </trkpt>
      <trkpt lat="42.92598" lon="0.19021">
        <ele>1442</ele>
        <time>2015-10-30T08:13:48Z</time>
      </trkpt>
      <trkpt lat="42.92597" lon="0.19018">
        <ele>1437</ele>
        <time>2015-10-30T08:14:50Z</time>
      </trkpt>
      <trkpt lat="42.92598" lon="0.19015">
        <ele>1437</ele>
        <time>2015-10-30T08:14:53Z</time>
      </trkpt>
      <trkpt lat="42.92605" lon="0.19014">
        <ele>1432</ele>
        <time>2015-10-30T08:14:58Z</time>
      </trkpt>
      <trkpt lat="42.92605" lon="0.1901">
        <ele>1431</ele>
        <time>2015-10-30T08:15:01Z</time>
      </trkpt>
      <trkpt lat="42.92606" lon="0.19002">
        <ele>1432</ele>
        <time>2015-10-30T08:15:08Z</time>
      </trkpt>
      <trkpt lat="42.9261" lon="0.18977">
        <ele>1434</ele>
        <time>2015-10-30T08:15:34Z</time>
      </trkpt>
      <trkpt lat="42.9261" lon="0.18942">
        <ele>1440</ele>
        <time>2015-10-30T08:16:04Z</time>
      </trkpt>
      <trkpt lat="42.92611" lon="0.18935">
        <ele>1440</ele>
        <time>2015-10-30T08:16:10Z</time>
      </trkpt>
      <trkpt lat="42.92611" lon="0.18898">
        <ele>1449</ele>
        <time>2015-10-30T08:16:41Z</time>
      </trkpt>
      <trkpt lat="42.92602" lon="0.1887">
        <ele>1455</ele>
        <time>2015-10-30T08:17:07Z</time>
      </trkpt>
      <trkpt lat="42.92602" lon="0.18867">
        <ele>1457</ele>
        <time>2015-10-30T08:17:17Z</time>
      </trkpt>
      <trkpt lat="42.92589" lon="0.18834">
        <ele>1464</ele>
        <time>2015-10-30T08:17:48Z</time>
      </trkpt>
      <trkpt lat="42.9259" lon="0.18804">
        <ele>1471</ele>
        <time>2015-10-30T08:18:21Z</time>
      </trkpt>
      <trkpt lat="42.92595" lon="0.18781">
        <ele>1475</ele>
        <time>2015-10-30T08:18:53Z</time>
      </trkpt>
      <trkpt lat="42.92603" lon="0.1875">
        <ele>1474</ele>
        <time>2015-10-30T08:19:23Z</time>
      </trkpt>
      <trkpt lat="42.92606" lon="0.18744">
        <ele>1474</ele>
        <time>2015-10-30T08:19:29Z</time>
      </trkpt>
      <trkpt lat="42.92606" lon="0.18741">
        <ele>1475</ele>
        <time>2015-10-30T08:19:32Z</time>
      </trkpt>
      <trkpt lat="42.92606" lon="0.18738">
        <ele>1475</ele>
        <time>2015-10-30T08:19:35Z</time>
      </trkpt>
      <trkpt lat="42.9261" lon="0.1872">
        <ele>1474</ele>
        <time>2015-10-30T08:19:53Z</time>
      </trkpt>
      <trkpt lat="42.92608" lon="0.18705">
        <ele>1477</ele>
        <time>2015-10-30T08:20:08Z</time>
      </trkpt>
      <trkpt lat="42.9261" lon="0.18697">
        <ele>1480</ele>
        <time>2015-10-30T08:20:17Z</time>
      </trkpt>
      <trkpt lat="42.92611" lon="0.18691">
        <ele>1481</ele>
        <time>2015-10-30T08:20:22Z</time>
      </trkpt>
      <trkpt lat="42.92616" lon="0.1866">
        <ele>1491</ele>
        <time>2015-10-30T08:20:53Z</time>
      </trkpt>
      <trkpt lat="42.9262" lon="0.18638">
        <ele>1494</ele>
        <time>2015-10-30T08:21:24Z</time>
      </trkpt>
      <trkpt lat="42.92621" lon="0.18636">
        <ele>1495</ele>
        <time>2015-10-30T08:21:27Z</time>
      </trkpt>
      <trkpt lat="42.92627" lon="0.18602">
        <ele>1499</ele>
        <time>2015-10-30T08:21:58Z</time>
      </trkpt>
      <trkpt lat="42.9263" lon="0.18598">
        <ele>1500</ele>
        <time>2015-10-30T08:22:04Z</time>
      </trkpt>
      <trkpt lat="42.92634" lon="0.18585">
        <ele>1501</ele>
        <time>2015-10-30T08:22:19Z</time>
      </trkpt>
      <trkpt lat="42.92639" lon="0.18575">
        <ele>1505</ele>
        <time>2015-10-30T08:22:30Z</time>
      </trkpt>
      <trkpt lat="42.92651" lon="0.18553">
        <ele>1514</ele>
        <time>2015-10-30T08:23:01Z</time>
      </trkpt>
      <trkpt lat="42.92664" lon="0.18525">
        <ele>1514</ele>
        <time>2015-10-30T08:23:31Z</time>
      </trkpt>
      <trkpt lat="42.92682" lon="0.18498">
        <ele>1518</ele>
        <time>2015-10-30T08:24:03Z</time>
      </trkpt>
      <trkpt lat="42.92684" lon="0.18497">
        <ele>1518</ele>
        <time>2015-10-30T08:24:05Z</time>
      </trkpt>
      <trkpt lat="42.92685" lon="0.18497">
        <ele>1522</ele>
        <time>2015-10-30T08:26:00Z</time>
      </trkpt>
      <trkpt lat="42.92698" lon="0.1848">
        <ele>1526</ele>
        <time>2015-10-30T08:26:30Z</time>
      </trkpt>
      <trkpt lat="42.9272" lon="0.18458">
        <ele>1525</ele>
        <time>2015-10-30T08:27:02Z</time>
      </trkpt>
      <trkpt lat="42.92748" lon="0.18443">
        <ele>1529</ele>
        <time>2015-10-30T08:27:32Z</time>
      </trkpt>
      <trkpt lat="42.92751" lon="0.1844">
        <ele>1530</ele>
        <time>2015-10-30T08:27:36Z</time>
      </trkpt>
      <trkpt lat="42.92771" lon="0.18415">
        <ele>1538</ele>
        <time>2015-10-30T08:28:08Z</time>
      </trkpt>
      <trkpt lat="42.92787" lon="0.1839">
        <ele>1538</ele>
        <time>2015-10-30T08:28:39Z</time>
      </trkpt>
      <trkpt lat="42.92795" lon="0.18356">
        <ele>1544</ele>
        <time>2015-10-30T08:29:09Z</time>
      </trkpt>
      <trkpt lat="42.92804" lon="0.18321">
        <ele>1550</ele>
        <time>2015-10-30T08:29:39Z</time>
      </trkpt>
      <trkpt lat="42.92805" lon="0.18309">
        <ele>1551</ele>
        <time>2015-10-30T08:29:50Z</time>
      </trkpt>
      <trkpt lat="42.92803" lon="0.18304">
        <ele>1551</ele>
        <time>2015-10-30T08:29:55Z</time>
      </trkpt>
      <trkpt lat="42.92801" lon="0.18302">
        <ele>1551</ele>
        <time>2015-10-30T08:29:58Z</time>
      </trkpt>
      <trkpt lat="42.92801" lon="0.18298">
        <ele>1552</ele>
        <time>2015-10-30T08:30:01Z</time>
      </trkpt>
      <trkpt lat="42.92803" lon="0.18291">
        <ele>1553</ele>
        <time>2015-10-30T08:30:07Z</time>
      </trkpt>
      <trkpt lat="42.92806" lon="0.18289">
        <ele>1556</ele>
        <time>2015-10-30T08:30:13Z</time>
      </trkpt>
      <trkpt lat="42.92807" lon="0.18286">
        <ele>1556</ele>
        <time>2015-10-30T08:30:23Z</time>
      </trkpt>
      <trkpt lat="42.92829" lon="0.18259">
        <ele>1562</ele>
        <time>2015-10-30T08:30:53Z</time>
      </trkpt>
      <trkpt lat="42.92844" lon="0.18223">
        <ele>1565</ele>
        <time>2015-10-30T08:31:24Z</time>
      </trkpt>
      <trkpt lat="42.92847" lon="0.18207">
        <ele>1566</ele>
        <time>2015-10-30T08:31:36Z</time>
      </trkpt>
      <trkpt lat="42.9285" lon="0.18205">
        <ele>1567</ele>
        <time>2015-10-30T08:31:55Z</time>
      </trkpt>
      <trkpt lat="42.92871" lon="0.18174">
        <ele>1571</ele>
        <time>2015-10-30T08:32:26Z</time>
      </trkpt>
      <trkpt lat="42.92895" lon="0.18142">
        <ele>1570</ele>
        <time>2015-10-30T08:32:56Z</time>
      </trkpt>
      <trkpt lat="42.92922" lon="0.18119">
        <ele>1571</ele>
        <time>2015-10-30T08:33:27Z</time>
      </trkpt>
      <trkpt lat="42.92923" lon="0.18113">
        <ele>1570</ele>
        <time>2015-10-30T08:33:31Z</time>
      </trkpt>
      <trkpt lat="42.92946" lon="0.18082">
        <ele>1572</ele>
        <time>2015-10-30T08:34:01Z</time>
      </trkpt>
      <trkpt lat="42.92952" lon="0.18073">
        <ele>1572</ele>
        <time>2015-10-30T08:34:09Z</time>
      </trkpt>
      <trkpt lat="42.92957" lon="0.18061">
        <ele>1574</ele>
        <time>2015-10-30T08:34:19Z</time>
      </trkpt>
      <trkpt lat="42.9296" lon="0.18058">
        <ele>1574</ele>
        <time>2015-10-30T08:34:25Z</time>
      </trkpt>
      <trkpt lat="42.92969" lon="0.18016">
        <ele>1573</ele>
        <time>2015-10-30T08:34:55Z</time>
      </trkpt>
      <trkpt lat="42.92979" lon="0.17975">
        <ele>1572</ele>
        <time>2015-10-30T08:35:25Z</time>
      </trkpt>
      <trkpt lat="42.9298" lon="0.1797">
        <ele>1572</ele>
        <time>2015-10-30T08:35:29Z</time>
      </trkpt>
      <trkpt lat="42.9298" lon="0.17965">
        <ele>1573</ele>
        <time>2015-10-30T08:35:34Z</time>
      </trkpt>
      <trkpt lat="42.92994" lon="0.17925">
        <ele>1573</ele>
        <time>2015-10-30T08:36:05Z</time>
      </trkpt>
      <trkpt lat="42.93009" lon="0.1789">
        <ele>1571</ele>
        <time>2015-10-30T08:36:36Z</time>
      </trkpt>
      <trkpt lat="42.93013" lon="0.1788">
        <ele>1572</ele>
        <time>2015-10-30T08:36:46Z</time>
      </trkpt>
      <trkpt lat="42.93014" lon="0.17878">
        <ele>1574</ele>
        <time>2015-10-30T08:36:48Z</time>
      </trkpt>
      <trkpt lat="42.93014" lon="0.17872">
        <ele>1576</ele>
        <time>2015-10-30T08:36:52Z</time>
      </trkpt>
      <trkpt lat="42.93032" lon="0.1784">
        <ele>1577</ele>
        <time>2015-10-30T08:37:23Z</time>
      </trkpt>
      <trkpt lat="42.93036" lon="0.1783">
        <ele>1576</ele>
        <time>2015-10-30T08:37:32Z</time>
      </trkpt>
      <trkpt lat="42.93038" lon="0.17829">
        <ele>1575</ele>
        <time>2015-10-30T08:37:34Z</time>
      </trkpt>
      <trkpt lat="42.93039" lon="0.17826">
        <ele>1575</ele>
        <time>2015-10-30T08:37:36Z</time>
      </trkpt>
      <trkpt lat="42.93039" lon="0.17824">
        <ele>1575</ele>
        <time>2015-10-30T08:37:38Z</time>
      </trkpt>
      <trkpt lat="42.93055" lon="0.17792">
        <ele>1578</ele>
        <time>2015-10-30T08:38:08Z</time>
      </trkpt>
      <trkpt lat="42.9307" lon="0.17767">
        <ele>1581</ele>
        <time>2015-10-30T08:38:39Z</time>
      </trkpt>
      <trkpt lat="42.93074" lon="0.17764">
        <ele>1582</ele>
        <time>2015-10-30T08:38:44Z</time>
      </trkpt>
      <trkpt lat="42.93078" lon="0.17763">
        <ele>1582</ele>
        <time>2015-10-30T08:38:48Z</time>
      </trkpt>
      <trkpt lat="42.9308" lon="0.1776">
        <ele>1582</ele>
        <time>2015-10-30T08:38:52Z</time>
      </trkpt>
      <trkpt lat="42.93081" lon="0.17754">
        <ele>1583</ele>
        <time>2015-10-30T08:38:56Z</time>
      </trkpt>
      <trkpt lat="42.93083" lon="0.17747">
        <ele>1588</ele>
        <time>2015-10-30T08:39:02Z</time>
      </trkpt>
      <trkpt lat="42.93084" lon="0.17744">
        <ele>1590</ele>
        <time>2015-10-30T08:39:04Z</time>
      </trkpt>
      <trkpt lat="42.93083" lon="0.17742">
        <ele>1591</ele>
        <time>2015-10-30T08:39:06Z</time>
      </trkpt>
      <trkpt lat="42.93083" lon="0.17739">
        <ele>1591</ele>
        <time>2015-10-30T08:39:08Z</time>
      </trkpt>
      <trkpt lat="42.93097" lon="0.17694">
        <ele>1593</ele>
        <time>2015-10-30T08:39:40Z</time>
      </trkpt>
      <trkpt lat="42.93113" lon="0.17657">
        <ele>1588</ele>
        <time>2015-10-30T08:40:10Z</time>
      </trkpt>
      <trkpt lat="42.93127" lon="0.17623">
        <ele>1591</ele>
        <time>2015-10-30T08:40:41Z</time>
      </trkpt>
      <trkpt lat="42.93138" lon="0.17584">
        <ele>1587</ele>
        <time>2015-10-30T08:41:11Z</time>
      </trkpt>
      <trkpt lat="42.93153" lon="0.1755">
        <ele>1588</ele>
        <time>2015-10-30T08:41:41Z</time>
      </trkpt>
      <trkpt lat="42.93161" lon="0.17533">
        <ele>1590</ele>
        <time>2015-10-30T08:41:55Z</time>
      </trkpt>
      <trkpt lat="42.93175" lon="0.17517">
        <ele>1596</ele>
        <time>2015-10-30T08:42:14Z</time>
      </trkpt>
      <trkpt lat="42.93176" lon="0.17514">
        <ele>1596</ele>
        <time>2015-10-30T08:42:17Z</time>
      </trkpt>
      <trkpt lat="42.93171" lon="0.17506">
        <ele>1599</ele>
        <time>2015-10-30T08:42:27Z</time>
      </trkpt>
      <trkpt lat="42.93169" lon="0.17504">
        <ele>1600</ele>
        <time>2015-10-30T08:42:30Z</time>
      </trkpt>
      <trkpt lat="42.93169" lon="0.17501">
        <ele>1603</ele>
        <time>2015-10-30T08:42:33Z</time>
      </trkpt>
      <trkpt lat="42.93171" lon="0.17499">
        <ele>1604</ele>
        <time>2015-10-30T08:42:35Z</time>
      </trkpt>
      <trkpt lat="42.93186" lon="0.17487">
        <ele>1604</ele>
        <time>2015-10-30T08:42:54Z</time>
      </trkpt>
      <trkpt lat="42.93187" lon="0.17484">
        <ele>1604</ele>
        <time>2015-10-30T08:42:56Z</time>
      </trkpt>
      <trkpt lat="42.93185" lon="0.17467">
        <ele>1606</ele>
        <time>2015-10-30T08:43:08Z</time>
      </trkpt>
      <trkpt lat="42.93185" lon="0.17465">
        <ele>1608</ele>
        <time>2015-10-30T08:43:10Z</time>
      </trkpt>
      <trkpt lat="42.93192" lon="0.17441">
        <ele>1609</ele>
        <time>2015-10-30T08:43:29Z</time>
      </trkpt>
      <trkpt lat="42.93191" lon="0.17435">
        <ele>1612</ele>
        <time>2015-10-30T08:43:33Z</time>
      </trkpt>
      <trkpt lat="42.93203" lon="0.17396">
        <ele>1618</ele>
        <time>2015-10-30T08:44:03Z</time>
      </trkpt>
      <trkpt lat="42.93208" lon="0.17352">
        <ele>1617</ele>
        <time>2015-10-30T08:44:34Z</time>
      </trkpt>
      <trkpt lat="42.9322" lon="0.17326">
        <ele>1616</ele>
        <time>2015-10-30T08:44:54Z</time>
      </trkpt>
      <trkpt lat="42.93241" lon="0.17294">
        <ele>1616</ele>
        <time>2015-10-30T08:45:24Z</time>
      </trkpt>
      <trkpt lat="42.93241" lon="0.17285">
        <ele>1616</ele>
        <time>2015-10-30T08:45:30Z</time>
      </trkpt>
      <trkpt lat="42.93254" lon="0.17238">
        <ele>1614</ele>
        <time>2015-10-30T08:46:01Z</time>
      </trkpt>
      <trkpt lat="42.93253" lon="0.17232">
        <ele>1614</ele>
        <time>2015-10-30T08:46:06Z</time>
      </trkpt>
      <trkpt lat="42.93255" lon="0.17226">
        <ele>1615</ele>
        <time>2015-10-30T08:46:12Z</time>
      </trkpt>
      <trkpt lat="42.93253" lon="0.17225">
        <ele>1615</ele>
        <time>2015-10-30T08:46:14Z</time>
      </trkpt>
      <trkpt lat="42.93253" lon="0.17223">
        <ele>1615</ele>
        <time>2015-10-30T08:46:18Z</time>
      </trkpt>
      <trkpt lat="42.93261" lon="0.17185">
        <ele>1619</ele>
        <time>2015-10-30T08:46:48Z</time>
      </trkpt>
      <trkpt lat="42.93272" lon="0.17148">
        <ele>1623</ele>
        <time>2015-10-30T08:47:18Z</time>
      </trkpt>
      <trkpt lat="42.93273" lon="0.17146">
        <ele>1623</ele>
        <time>2015-10-30T08:47:20Z</time>
      </trkpt>
      <trkpt lat="42.93273" lon="0.17139">
        <ele>1625</ele>
        <time>2015-10-30T08:47:25Z</time>
      </trkpt>
      <trkpt lat="42.93271" lon="0.17134">
        <ele>1625</ele>
        <time>2015-10-30T08:47:29Z</time>
      </trkpt>
      <trkpt lat="42.93271" lon="0.17131">
        <ele>1625</ele>
        <time>2015-10-30T08:47:32Z</time>
      </trkpt>
      <trkpt lat="42.93276" lon="0.17101">
        <ele>1632</ele>
        <time>2015-10-30T08:48:04Z</time>
      </trkpt>
      <trkpt lat="42.93277" lon="0.17098">
        <ele>1632</ele>
        <time>2015-10-30T08:48:07Z</time>
      </trkpt>
      <trkpt lat="42.93277" lon="0.17096">
        <ele>1633</ele>
        <time>2015-10-30T08:48:09Z</time>
      </trkpt>
      <trkpt lat="42.93277" lon="0.17067">
        <ele>1636</ele>
        <time>2015-10-30T08:48:40Z</time>
      </trkpt>
      <trkpt lat="42.93277" lon="0.17065">
        <ele>1636</ele>
        <time>2015-10-30T08:48:42Z</time>
      </trkpt>
      <trkpt lat="42.93276" lon="0.17028">
        <ele>1640</ele>
        <time>2015-10-30T08:49:12Z</time>
      </trkpt>
      <trkpt lat="42.93275" lon="0.17025">
        <ele>1641</ele>
        <time>2015-10-30T08:49:14Z</time>
      </trkpt>
      <trkpt lat="42.93275" lon="0.17023">
        <ele>1641</ele>
        <time>2015-10-30T08:49:16Z</time>
      </trkpt>
      <trkpt lat="42.93273" lon="0.1701">
        <ele>1642</ele>
        <time>2015-10-30T08:49:27Z</time>
      </trkpt>
      <trkpt lat="42.93275" lon="0.17006">
        <ele>1643</ele>
        <time>2015-10-30T08:49:33Z</time>
      </trkpt>
      <trkpt lat="42.93275" lon="0.16996">
        <ele>1644</ele>
        <time>2015-10-30T08:49:41Z</time>
      </trkpt>
      <trkpt lat="42.93275" lon="0.16994">
        <ele>1644</ele>
        <time>2015-10-30T08:49:43Z</time>
      </trkpt>
      <trkpt lat="42.93277" lon="0.1696">
        <ele>1647</ele>
        <time>2015-10-30T08:50:14Z</time>
      </trkpt>
      <trkpt lat="42.93274" lon="0.16953">
        <ele>1648</ele>
        <time>2015-10-30T08:50:22Z</time>
      </trkpt>
      <trkpt lat="42.93274" lon="0.16951">
        <ele>1648</ele>
        <time>2015-10-30T08:50:25Z</time>
      </trkpt>
      <trkpt lat="42.93276" lon="0.16948">
        <ele>1649</ele>
        <time>2015-10-30T08:50:28Z</time>
      </trkpt>
      <trkpt lat="42.93276" lon="0.16943">
        <ele>1651</ele>
        <time>2015-10-30T08:50:33Z</time>
      </trkpt>
      <trkpt lat="42.93277" lon="0.16939">
        <ele>1654</ele>
        <time>2015-10-30T08:50:38Z</time>
      </trkpt>
      <trkpt lat="42.93282" lon="0.16932">
        <ele>1657</ele>
        <time>2015-10-30T08:50:50Z</time>
      </trkpt>
      <trkpt lat="42.93283" lon="0.16927">
        <ele>1658</ele>
        <time>2015-10-30T08:50:56Z</time>
      </trkpt>
      <trkpt lat="42.93284" lon="0.16898">
        <ele>1663</ele>
        <time>2015-10-30T08:51:27Z</time>
      </trkpt>
      <trkpt lat="42.93285" lon="0.16892">
        <ele>1658</ele>
        <time>2015-10-30T08:53:02Z</time>
      </trkpt>
      <trkpt lat="42.93296" lon="0.16853">
        <ele>1660</ele>
        <time>2015-10-30T08:53:32Z</time>
      </trkpt>
      <trkpt lat="42.93314" lon="0.16819">
        <ele>1667</ele>
        <time>2015-10-30T08:54:03Z</time>
      </trkpt>
      <trkpt lat="42.93315" lon="0.16814">
        <ele>1666</ele>
        <time>2015-10-30T08:54:07Z</time>
      </trkpt>
      <trkpt lat="42.93338" lon="0.16786">
        <ele>1671</ele>
        <time>2015-10-30T08:54:38Z</time>
      </trkpt>
      <trkpt lat="42.93353" lon="0.16756">
        <ele>1675</ele>
        <time>2015-10-30T08:55:08Z</time>
      </trkpt>
      <trkpt lat="42.93353" lon="0.16753">
        <ele>1675</ele>
        <time>2015-10-30T08:55:11Z</time>
      </trkpt>
      <trkpt lat="42.93369" lon="0.16719">
        <ele>1677</ele>
        <time>2015-10-30T08:55:42Z</time>
      </trkpt>
      <trkpt lat="42.93378" lon="0.16688">
        <ele>1681</ele>
        <time>2015-10-30T08:56:12Z</time>
      </trkpt>
      <trkpt lat="42.93378" lon="0.16686">
        <ele>1681</ele>
        <time>2015-10-30T08:56:14Z</time>
      </trkpt>
      <trkpt lat="42.9339" lon="0.1667">
        <ele>1686</ele>
        <time>2015-10-30T08:56:35Z</time>
      </trkpt>
      <trkpt lat="42.93408" lon="0.16642">
        <ele>1690</ele>
        <time>2015-10-30T08:57:06Z</time>
      </trkpt>
      <trkpt lat="42.93424" lon="0.16615">
        <ele>1692</ele>
        <time>2015-10-30T08:57:36Z</time>
      </trkpt>
      <trkpt lat="42.93425" lon="0.16613">
        <ele>1691</ele>
        <time>2015-10-30T08:57:38Z</time>
      </trkpt>
      <trkpt lat="42.93444" lon="0.16587">
        <ele>1694</ele>
        <time>2015-10-30T08:58:08Z</time>
      </trkpt>
      <trkpt lat="42.93447" lon="0.16584">
        <ele>1695</ele>
        <time>2015-10-30T08:58:13Z</time>
      </trkpt>
      <trkpt lat="42.93457" lon="0.16553">
        <ele>1693</ele>
        <time>2015-10-30T08:58:45Z</time>
      </trkpt>
      <trkpt lat="42.93459" lon="0.16552">
        <ele>1693</ele>
        <time>2015-10-30T08:58:47Z</time>
      </trkpt>
      <trkpt lat="42.93462" lon="0.16553">
        <ele>1693</ele>
        <time>2015-10-30T08:58:51Z</time>
      </trkpt>
      <trkpt lat="42.93483" lon="0.16533">
        <ele>1697</ele>
        <time>2015-10-30T08:59:22Z</time>
      </trkpt>
      <trkpt lat="42.93502" lon="0.16515">
        <ele>1703</ele>
        <time>2015-10-30T08:59:54Z</time>
      </trkpt>
      <trkpt lat="42.93524" lon="0.16494">
        <ele>1706</ele>
        <time>2015-10-30T09:00:24Z</time>
      </trkpt>
      <trkpt lat="42.93527" lon="0.16491">
        <ele>1708</ele>
        <time>2015-10-30T09:00:30Z</time>
      </trkpt>
      <trkpt lat="42.93544" lon="0.16462">
        <ele>1710</ele>
        <time>2015-10-30T09:01:01Z</time>
      </trkpt>
      <trkpt lat="42.93566" lon="0.16436">
        <ele>1711</ele>
        <time>2015-10-30T09:01:32Z</time>
      </trkpt>
      <trkpt lat="42.93567" lon="0.16424">
        <ele>1714</ele>
        <time>2015-10-30T09:01:43Z</time>
      </trkpt>
      <trkpt lat="42.93563" lon="0.16399">
        <ele>1718</ele>
        <time>2015-10-30T09:02:03Z</time>
      </trkpt>
      <trkpt lat="42.93575" lon="0.16365">
        <ele>1719</ele>
        <time>2015-10-30T09:02:35Z</time>
      </trkpt>
      <trkpt lat="42.93576" lon="0.1636">
        <ele>1719</ele>
        <time>2015-10-30T09:02:42Z</time>
      </trkpt>
      <trkpt lat="42.93575" lon="0.16358">
        <ele>1719</ele>
        <time>2015-10-30T09:02:44Z</time>
      </trkpt>
      <trkpt lat="42.93575" lon="0.16353">
        <ele>1720</ele>
        <time>2015-10-30T09:02:48Z</time>
      </trkpt>
      <trkpt lat="42.93587" lon="0.16328">
        <ele>1722</ele>
        <time>2015-10-30T09:03:13Z</time>
      </trkpt>
      <trkpt lat="42.9359" lon="0.16329">
        <ele>1723</ele>
        <time>2015-10-30T09:03:19Z</time>
      </trkpt>
      <trkpt lat="42.93592" lon="0.16329">
        <ele>1726</ele>
        <time>2015-10-30T09:03:22Z</time>
      </trkpt>
      <trkpt lat="42.93597" lon="0.16328">
        <ele>1728</ele>
        <time>2015-10-30T09:03:28Z</time>
      </trkpt>
      <trkpt lat="42.93599" lon="0.16328">
        <ele>1729</ele>
        <time>2015-10-30T09:03:31Z</time>
      </trkpt>
      <trkpt lat="42.9362" lon="0.16341">
        <ele>1732</ele>
        <time>2015-10-30T09:04:01Z</time>
      </trkpt>
      <trkpt lat="42.93635" lon="0.16353">
        <ele>1739</ele>
        <time>2015-10-30T09:04:22Z</time>
      </trkpt>
      <trkpt lat="42.93657" lon="0.16338">
        <ele>1742</ele>
        <time>2015-10-30T09:04:52Z</time>
      </trkpt>
      <trkpt lat="42.93659" lon="0.16337">
        <ele>1742</ele>
        <time>2015-10-30T09:04:55Z</time>
      </trkpt>
      <trkpt lat="42.93659" lon="0.16334">
        <ele>1742</ele>
        <time>2015-10-30T09:05:08Z</time>
      </trkpt>
      <trkpt lat="42.9366" lon="0.16332">
        <ele>1741</ele>
        <time>2015-10-30T09:05:11Z</time>
      </trkpt>
      <trkpt lat="42.93686" lon="0.16311">
        <ele>1741</ele>
        <time>2015-10-30T09:05:40Z</time>
      </trkpt>
      <trkpt lat="42.93688" lon="0.16313">
        <ele>1741</ele>
        <time>2015-10-30T09:14:19Z</time>
      </trkpt>
      <trkpt lat="42.9369" lon="0.16314">
        <ele>1741</ele>
        <time>2015-10-30T09:14:23Z</time>
      </trkpt>
      <trkpt lat="42.93692" lon="0.16315">
        <ele>1743</ele>
        <time>2015-10-30T09:14:26Z</time>
      </trkpt>
      <trkpt lat="42.93694" lon="0.16316">
        <ele>1744</ele>
        <time>2015-10-30T09:14:29Z</time>
      </trkpt>
      <trkpt lat="42.93711" lon="0.16307">
        <ele>1749</ele>
        <time>2015-10-30T09:14:53Z</time>
      </trkpt>
      <trkpt lat="42.93715" lon="0.16301">
        <ele>1751</ele>
        <time>2015-10-30T09:15:01Z</time>
      </trkpt>
      <trkpt lat="42.93733" lon="0.16281">
        <ele>1760</ele>
        <time>2015-10-30T09:15:31Z</time>
      </trkpt>
      <trkpt lat="42.93755" lon="0.16264">
        <ele>1762</ele>
        <time>2015-10-30T09:16:03Z</time>
      </trkpt>
      <trkpt lat="42.93776" lon="0.16251">
        <ele>1770</ele>
        <time>2015-10-30T09:16:35Z</time>
      </trkpt>
      <trkpt lat="42.93777" lon="0.16252">
        <ele>1770</ele>
        <time>2015-10-30T09:16:38Z</time>
      </trkpt>
      <trkpt lat="42.93798" lon="0.16238">
        <ele>1772</ele>
        <time>2015-10-30T09:17:08Z</time>
      </trkpt>
      <trkpt lat="42.93801" lon="0.16237">
        <ele>1773</ele>
        <time>2015-10-30T09:17:11Z</time>
      </trkpt>
      <trkpt lat="42.93805" lon="0.16236">
        <ele>1775</ele>
        <time>2015-10-30T09:17:16Z</time>
      </trkpt>
      <trkpt lat="42.9381" lon="0.16229">
        <ele>1776</ele>
        <time>2015-10-30T09:17:25Z</time>
      </trkpt>
      <trkpt lat="42.93812" lon="0.16225">
        <ele>1780</ele>
        <time>2015-10-30T09:17:30Z</time>
      </trkpt>
      <trkpt lat="42.93816" lon="0.16224">
        <ele>1781</ele>
        <time>2015-10-30T09:17:36Z</time>
      </trkpt>
      <trkpt lat="42.93819" lon="0.1622">
        <ele>1782</ele>
        <time>2015-10-30T09:17:42Z</time>
      </trkpt>
      <trkpt lat="42.9384" lon="0.16225">
        <ele>1787</ele>
        <time>2015-10-30T09:18:14Z</time>
      </trkpt>
      <trkpt lat="42.93844" lon="0.16224">
        <ele>1789</ele>
        <time>2015-10-30T09:18:20Z</time>
      </trkpt>
      <trkpt lat="42.93847" lon="0.16222">
        <ele>1790</ele>
        <time>2015-10-30T09:18:26Z</time>
      </trkpt>
      <trkpt lat="42.93853" lon="0.16225">
        <ele>1792</ele>
        <time>2015-10-30T09:18:36Z</time>
      </trkpt>
      <trkpt lat="42.93856" lon="0.16229">
        <ele>1793</ele>
        <time>2015-10-30T09:18:43Z</time>
      </trkpt>
      <trkpt lat="42.93858" lon="0.16229">
        <ele>1794</ele>
        <time>2015-10-30T09:18:47Z</time>
      </trkpt>
      <trkpt lat="42.93861" lon="0.16225">
        <ele>1793</ele>
        <time>2015-10-30T09:18:51Z</time>
      </trkpt>
      <trkpt lat="42.93886" lon="0.16224">
        <ele>1796</ele>
        <time>2015-10-30T09:19:22Z</time>
      </trkpt>
      <trkpt lat="42.93894" lon="0.16221">
        <ele>1797</ele>
        <time>2015-10-30T09:19:33Z</time>
      </trkpt>
      <trkpt lat="42.93896" lon="0.16222">
        <ele>1798</ele>
        <time>2015-10-30T09:19:36Z</time>
      </trkpt>
      <trkpt lat="42.93898" lon="0.16221">
        <ele>1798</ele>
        <time>2015-10-30T09:19:39Z</time>
      </trkpt>
      <trkpt lat="42.93903" lon="0.16216">
        <ele>1799</ele>
        <time>2015-10-30T09:19:47Z</time>
      </trkpt>
      <trkpt lat="42.93906" lon="0.16215">
        <ele>1800</ele>
        <time>2015-10-30T09:19:53Z</time>
      </trkpt>
      <trkpt lat="42.93918" lon="0.16204">
        <ele>1806</ele>
        <time>2015-10-30T09:20:17Z</time>
      </trkpt>
      <trkpt lat="42.93934" lon="0.16212">
        <ele>1808</ele>
        <time>2015-10-30T09:20:40Z</time>
      </trkpt>
      <trkpt lat="42.93938" lon="0.16216">
        <ele>1811</ele>
        <time>2015-10-30T09:20:46Z</time>
      </trkpt>
      <trkpt lat="42.93958" lon="0.16199">
        <ele>1815</ele>
        <time>2015-10-30T09:21:18Z</time>
      </trkpt>
      <trkpt lat="42.93959" lon="0.16197">
        <ele>1815</ele>
        <time>2015-10-30T09:21:21Z</time>
      </trkpt>
      <trkpt lat="42.9396" lon="0.16196">
        <ele>1815</ele>
        <time>2015-10-30T09:21:23Z</time>
      </trkpt>
      <trkpt lat="42.93966" lon="0.16202">
        <ele>1816</ele>
        <time>2015-10-30T09:21:55Z</time>
      </trkpt>
      <trkpt lat="42.93971" lon="0.16214">
        <ele>1817</ele>
        <time>2015-10-30T09:22:07Z</time>
      </trkpt>
      <trkpt lat="42.93974" lon="0.16215">
        <ele>1818</ele>
        <time>2015-10-30T09:22:11Z</time>
      </trkpt>
      <trkpt lat="42.9398" lon="0.16225">
        <ele>1820</ele>
        <time>2015-10-30T09:22:24Z</time>
      </trkpt>
      <trkpt lat="42.93981" lon="0.16224">
        <ele>1820</ele>
        <time>2015-10-30T09:22:26Z</time>
      </trkpt>
      <trkpt lat="42.93997" lon="0.16208">
        <ele>1825</ele>
        <time>2015-10-30T09:22:57Z</time>
      </trkpt>
      <trkpt lat="42.94013" lon="0.16201">
        <ele>1832</ele>
        <time>2015-10-30T09:23:28Z</time>
      </trkpt>
      <trkpt lat="42.94032" lon="0.16194">
        <ele>1838</ele>
        <time>2015-10-30T09:23:58Z</time>
      </trkpt>
      <trkpt lat="42.94053" lon="0.16195">
        <ele>1845</ele>
        <time>2015-10-30T09:24:29Z</time>
      </trkpt>
      <trkpt lat="42.94074" lon="0.16205">
        <ele>1850</ele>
        <time>2015-10-30T09:25:01Z</time>
      </trkpt>
      <trkpt lat="42.94096" lon="0.16214">
        <ele>1852</ele>
        <time>2015-10-30T09:25:32Z</time>
      </trkpt>
      <trkpt lat="42.94119" lon="0.16221">
        <ele>1856</ele>
        <time>2015-10-30T09:26:03Z</time>
      </trkpt>
      <trkpt lat="42.94141" lon="0.16231">
        <ele>1862</ele>
        <time>2015-10-30T09:26:35Z</time>
      </trkpt>
      <trkpt lat="42.94162" lon="0.16244">
        <ele>1866</ele>
        <time>2015-10-30T09:27:07Z</time>
      </trkpt>
      <trkpt lat="42.94185" lon="0.16243">
        <ele>1872</ele>
        <time>2015-10-30T09:27:39Z</time>
      </trkpt>
      <trkpt lat="42.94204" lon="0.16239">
        <ele>1879</ele>
        <time>2015-10-30T09:28:09Z</time>
      </trkpt>
      <trkpt lat="42.94223" lon="0.16233">
        <ele>1885</ele>
        <time>2015-10-30T09:28:40Z</time>
      </trkpt>
      <trkpt lat="42.94242" lon="0.16222">
        <ele>1890</ele>
        <time>2015-10-30T09:29:10Z</time>
      </trkpt>
      <trkpt lat="42.94263" lon="0.16215">
        <ele>1896</ele>
        <time>2015-10-30T09:29:42Z</time>
      </trkpt>
      <trkpt lat="42.94283" lon="0.16217">
        <ele>1902</ele>
        <time>2015-10-30T09:30:13Z</time>
      </trkpt>
      <trkpt lat="42.94299" lon="0.1623">
        <ele>1903</ele>
        <time>2015-10-30T09:30:37Z</time>
      </trkpt>
      <trkpt lat="42.94312" lon="0.16226">
        <ele>1904</ele>
        <time>2015-10-30T09:30:54Z</time>
      </trkpt>
      <trkpt lat="42.94314" lon="0.16226">
        <ele>1904</ele>
        <time>2015-10-30T09:33:09Z</time>
      </trkpt>
      <trkpt lat="42.94335" lon="0.16232">
        <ele>1902</ele>
        <time>2015-10-30T09:33:27Z</time>
      </trkpt>
      <trkpt lat="42.94337" lon="0.16228">
        <ele>1902</ele>
        <time>2015-10-30T09:33:31Z</time>
      </trkpt>
      <trkpt lat="42.94354" lon="0.16197">
        <ele>1904</ele>
        <time>2015-10-30T09:34:02Z</time>
      </trkpt>
      <trkpt lat="42.94378" lon="0.16164">
        <ele>1906</ele>
        <time>2015-10-30T09:34:33Z</time>
      </trkpt>
      <trkpt lat="42.94397" lon="0.16143">
        <ele>1907</ele>
        <time>2015-10-30T09:35:03Z</time>
      </trkpt>
      <trkpt lat="42.944" lon="0.16132">
        <ele>1908</ele>
        <time>2015-10-30T09:35:14Z</time>
      </trkpt>
      <trkpt lat="42.944" lon="0.16128">
        <ele>1910</ele>
        <time>2015-10-30T09:35:17Z</time>
      </trkpt>
      <trkpt lat="42.94408" lon="0.1611">
        <ele>1912</ele>
        <time>2015-10-30T09:35:33Z</time>
      </trkpt>
      <trkpt lat="42.94414" lon="0.16103">
        <ele>1913</ele>
        <time>2015-10-30T09:35:42Z</time>
      </trkpt>
      <trkpt lat="42.94415" lon="0.16102">
        <ele>1912</ele>
        <time>2015-10-30T09:35:44Z</time>
      </trkpt>
      <trkpt lat="42.94418" lon="0.16105">
        <ele>1911</ele>
        <time>2015-10-30T09:35:49Z</time>
      </trkpt>
      <trkpt lat="42.9442" lon="0.1611">
        <ele>1911</ele>
        <time>2015-10-30T09:35:54Z</time>
      </trkpt>
      <trkpt lat="42.94441" lon="0.16124">
        <ele>1917</ele>
        <time>2015-10-30T09:36:24Z</time>
      </trkpt>
      <trkpt lat="42.94448" lon="0.16125">
        <ele>1919</ele>
        <time>2015-10-30T09:36:33Z</time>
      </trkpt>
      <trkpt lat="42.94461" lon="0.16111">
        <ele>1923</ele>
        <time>2015-10-30T09:36:56Z</time>
      </trkpt>
      <trkpt lat="42.94474" lon="0.16122">
        <ele>1926</ele>
        <time>2015-10-30T09:37:19Z</time>
      </trkpt>
      <trkpt lat="42.94478" lon="0.16117">
        <ele>1927</ele>
        <time>2015-10-30T09:37:28Z</time>
      </trkpt>
      <trkpt lat="42.9448" lon="0.16107">
        <ele>1929</ele>
        <time>2015-10-30T09:37:38Z</time>
      </trkpt>
      <trkpt lat="42.94482" lon="0.16107">
        <ele>1930</ele>
        <time>2015-10-30T09:37:42Z</time>
      </trkpt>
      <trkpt lat="42.94498" lon="0.16101">
        <ele>1937</ele>
        <time>2015-10-30T09:38:13Z</time>
      </trkpt>
      <trkpt lat="42.94501" lon="0.16102">
        <ele>1939</ele>
        <time>2015-10-30T09:38:19Z</time>
      </trkpt>
      <trkpt lat="42.94502" lon="0.16104">
        <ele>1940</ele>
        <time>2015-10-30T09:38:22Z</time>
      </trkpt>
      <trkpt lat="42.9452" lon="0.16098">
        <ele>1944</ele>
        <time>2015-10-30T09:38:52Z</time>
      </trkpt>
      <trkpt lat="42.94537" lon="0.16092">
        <ele>1950</ele>
        <time>2015-10-30T09:39:22Z</time>
      </trkpt>
      <trkpt lat="42.94553" lon="0.16088">
        <ele>1959</ele>
        <time>2015-10-30T09:39:53Z</time>
      </trkpt>
      <trkpt lat="42.94556" lon="0.16087">
        <ele>1960</ele>
        <time>2015-10-30T09:40:02Z</time>
      </trkpt>
      <trkpt lat="42.94557" lon="0.16089">
        <ele>1961</ele>
        <time>2015-10-30T09:40:06Z</time>
      </trkpt>
      <trkpt lat="42.94561" lon="0.16089">
        <ele>1963</ele>
        <time>2015-10-30T09:40:15Z</time>
      </trkpt>
      <trkpt lat="42.94575" lon="0.16085">
        <ele>1969</ele>
        <time>2015-10-30T09:40:47Z</time>
      </trkpt>
      <trkpt lat="42.94578" lon="0.16083">
        <ele>1969</ele>
        <time>2015-10-30T09:40:54Z</time>
      </trkpt>
      <trkpt lat="42.94585" lon="0.16086">
        <ele>1973</ele>
        <time>2015-10-30T09:41:10Z</time>
      </trkpt>
      <trkpt lat="42.94586" lon="0.16094">
        <ele>1975</ele>
        <time>2015-10-30T09:41:23Z</time>
      </trkpt>
      <trkpt lat="42.94595" lon="0.16091">
        <ele>1979</ele>
        <time>2015-10-30T09:41:54Z</time>
      </trkpt>
      <trkpt lat="42.94607" lon="0.16078">
        <ele>1984</ele>
        <time>2015-10-30T09:42:20Z</time>
      </trkpt>
      <trkpt lat="42.94613" lon="0.16051">
        <ele>1990</ele>
        <time>2015-10-30T09:42:50Z</time>
      </trkpt>
      <trkpt lat="42.94613" lon="0.16049">
        <ele>1991</ele>
        <time>2015-10-30T09:42:52Z</time>
      </trkpt>
      <trkpt lat="42.94614" lon="0.16045">
        <ele>1993</ele>
        <time>2015-10-30T09:42:58Z</time>
      </trkpt>
      <trkpt lat="42.94615" lon="0.16043">
        <ele>1993</ele>
        <time>2015-10-30T09:43:01Z</time>
      </trkpt>
      <trkpt lat="42.94617" lon="0.16037">
        <ele>1996</ele>
        <time>2015-10-30T09:43:12Z</time>
      </trkpt>
      <trkpt lat="42.94617" lon="0.16035">
        <ele>1996</ele>
        <time>2015-10-30T09:43:15Z</time>
      </trkpt>
      <trkpt lat="42.94617" lon="0.16033">
        <ele>1996</ele>
        <time>2015-10-30T09:43:19Z</time>
      </trkpt>
      <trkpt lat="42.94617" lon="0.16031">
        <ele>1997</ele>
        <time>2015-10-30T09:43:23Z</time>
      </trkpt>
      <trkpt lat="42.94623" lon="0.16014">
        <ele>2003</ele>
        <time>2015-10-30T09:43:50Z</time>
      </trkpt>
      <trkpt lat="42.94624" lon="0.16013">
        <ele>2003</ele>
        <time>2015-10-30T09:43:53Z</time>
      </trkpt>
      <trkpt lat="42.94625" lon="0.16011">
        <ele>2003</ele>
        <time>2015-10-30T09:43:56Z</time>
      </trkpt>
      <trkpt lat="42.94627" lon="0.1601">
        <ele>2005</ele>
        <time>2015-10-30T09:44:00Z</time>
      </trkpt>
      <trkpt lat="42.9463" lon="0.16008">
        <ele>2005</ele>
        <time>2015-10-30T09:44:09Z</time>
      </trkpt>
      <trkpt lat="42.94628" lon="0.16004">
        <ele>2007</ele>
        <time>2015-10-30T09:44:25Z</time>
      </trkpt>
      <trkpt lat="42.94628" lon="0.16001">
        <ele>2002</ele>
        <time>2015-10-30T09:55:51Z</time>
      </trkpt>
      <trkpt lat="42.94627" lon="0.15998">
        <ele>2002</ele>
        <time>2015-10-30T09:56:23Z</time>
      </trkpt>
      <trkpt lat="42.94627" lon="0.15994">
        <ele>2002</ele>
        <time>2015-10-30T09:56:25Z</time>
      </trkpt>
      <trkpt lat="42.94626" lon="0.15992">
        <ele>2002</ele>
        <time>2015-10-30T09:56:27Z</time>
      </trkpt>
      <trkpt lat="42.94624" lon="0.15988">
        <ele>2001</ele>
        <time>2015-10-30T09:56:32Z</time>
      </trkpt>
      <trkpt lat="42.94625" lon="0.15986">
        <ele>2001</ele>
        <time>2015-10-30T09:56:34Z</time>
      </trkpt>
      <trkpt lat="42.94636" lon="0.15956">
        <ele>1998</ele>
        <time>2015-10-30T09:57:05Z</time>
      </trkpt>
      <trkpt lat="42.94641" lon="0.15943">
        <ele>1997</ele>
        <time>2015-10-30T09:57:15Z</time>
      </trkpt>
      <trkpt lat="42.94641" lon="0.1594">
        <ele>1997</ele>
        <time>2015-10-30T09:57:17Z</time>
      </trkpt>
      <trkpt lat="42.94628" lon="0.15904">
        <ele>2000</ele>
        <time>2015-10-30T09:57:48Z</time>
      </trkpt>
      <trkpt lat="42.94626" lon="0.15883">
        <ele>2006</ele>
        <time>2015-10-30T09:58:18Z</time>
      </trkpt>
      <trkpt lat="42.94625" lon="0.15881">
        <ele>2006</ele>
        <time>2015-10-30T09:58:21Z</time>
      </trkpt>
      <trkpt lat="42.94623" lon="0.1587">
        <ele>2009</ele>
        <time>2015-10-30T09:58:34Z</time>
      </trkpt>
      <trkpt lat="42.94624" lon="0.15867">
        <ele>2010</ele>
        <time>2015-10-30T09:58:37Z</time>
      </trkpt>
      <trkpt lat="42.94624" lon="0.15865">
        <ele>2010</ele>
        <time>2015-10-30T09:58:39Z</time>
      </trkpt>
      <trkpt lat="42.94624" lon="0.15863">
        <ele>2009</ele>
        <time>2015-10-30T09:58:41Z</time>
      </trkpt>
      <trkpt lat="42.94628" lon="0.15837">
        <ele>2008</ele>
        <time>2015-10-30T09:59:00Z</time>
      </trkpt>
      <trkpt lat="42.94631" lon="0.1583">
        <ele>2008</ele>
        <time>2015-10-30T09:59:06Z</time>
      </trkpt>
      <trkpt lat="42.9463" lon="0.15825">
        <ele>2008</ele>
        <time>2015-10-30T09:59:10Z</time>
      </trkpt>
      <trkpt lat="42.94632" lon="0.15817">
        <ele>2009</ele>
        <time>2015-10-30T09:59:17Z</time>
      </trkpt>
      <trkpt lat="42.94646" lon="0.15797">
        <ele>2011</ele>
        <time>2015-10-30T09:59:47Z</time>
      </trkpt>
      <trkpt lat="42.94662" lon="0.15793">
        <ele>2015</ele>
        <time>2015-10-30T10:00:14Z</time>
      </trkpt>
      <trkpt lat="42.94663" lon="0.15791">
        <ele>2016</ele>
        <time>2015-10-30T10:00:16Z</time>
      </trkpt>
      <trkpt lat="42.94663" lon="0.15785">
        <ele>2017</ele>
        <time>2015-10-30T10:00:29Z</time>
      </trkpt>
      <trkpt lat="42.94662" lon="0.15784">
        <ele>2017</ele>
        <time>2015-10-30T10:00:37Z</time>
      </trkpt>
      <trkpt lat="42.94662" lon="0.15782">
        <ele>2017</ele>
        <time>2015-10-30T10:00:40Z</time>
      </trkpt>
      <trkpt lat="42.94662" lon="0.15779">
        <ele>2018</ele>
        <time>2015-10-30T10:00:42Z</time>
      </trkpt>
      <trkpt lat="42.94657" lon="0.15758">
        <ele>2018</ele>
        <time>2015-10-30T10:01:01Z</time>
      </trkpt>
      <trkpt lat="42.94656" lon="0.15756">
        <ele>2018</ele>
        <time>2015-10-30T10:01:03Z</time>
      </trkpt>
      <trkpt lat="42.94638" lon="0.15728">
        <ele>2016</ele>
        <time>2015-10-30T10:01:33Z</time>
      </trkpt>
      <trkpt lat="42.94634" lon="0.15723">
        <ele>2018</ele>
        <time>2015-10-30T10:01:45Z</time>
      </trkpt>
      <trkpt lat="42.94633" lon="0.1572">
        <ele>2018</ele>
        <time>2015-10-30T10:01:47Z</time>
      </trkpt>
      <trkpt lat="42.94631" lon="0.15707">
        <ele>2020</ele>
        <time>2015-10-30T10:01:57Z</time>
      </trkpt>
      <trkpt lat="42.94643" lon="0.15679">
        <ele>2028</ele>
        <time>2015-10-30T10:02:55Z</time>
      </trkpt>
      <trkpt lat="42.94661" lon="0.15655">
        <ele>2033</ele>
        <time>2015-10-30T10:03:26Z</time>
      </trkpt>
      <trkpt lat="42.94682" lon="0.15638">
        <ele>2037</ele>
        <time>2015-10-30T10:03:56Z</time>
      </trkpt>
      <trkpt lat="42.94705" lon="0.15637">
        <ele>2044</ele>
        <time>2015-10-30T10:04:27Z</time>
      </trkpt>
      <trkpt lat="42.94719" lon="0.15638">
        <ele>2048</ele>
        <time>2015-10-30T10:05:12Z</time>
      </trkpt>
      <trkpt lat="42.94742" lon="0.1565">
        <ele>2054</ele>
        <time>2015-10-30T10:05:42Z</time>
      </trkpt>
      <trkpt lat="42.94756" lon="0.15666">
        <ele>2059</ele>
        <time>2015-10-30T10:06:10Z</time>
      </trkpt>
      <trkpt lat="42.94758" lon="0.15665">
        <ele>2059</ele>
        <time>2015-10-30T10:06:13Z</time>
      </trkpt>
      <trkpt lat="42.94758" lon="0.15655">
        <ele>2060</ele>
        <time>2015-10-30T10:06:24Z</time>
      </trkpt>
      <trkpt lat="42.94751" lon="0.15641">
        <ele>2061</ele>
        <time>2015-10-30T10:06:36Z</time>
      </trkpt>
      <trkpt lat="42.94745" lon="0.15632">
        <ele>2061</ele>
        <time>2015-10-30T10:06:46Z</time>
      </trkpt>
      <trkpt lat="42.94727" lon="0.15607">
        <ele>2065</ele>
        <time>2015-10-30T10:07:17Z</time>
      </trkpt>
      <trkpt lat="42.94707" lon="0.15582">
        <ele>2066</ele>
        <time>2015-10-30T10:07:49Z</time>
      </trkpt>
      <trkpt lat="42.94703" lon="0.15578">
        <ele>2066</ele>
        <time>2015-10-30T10:07:57Z</time>
      </trkpt>
      <trkpt lat="42.94699" lon="0.15574">
        <ele>2065</ele>
        <time>2015-10-30T10:08:03Z</time>
      </trkpt>
      <trkpt lat="42.94697" lon="0.15574">
        <ele>2065</ele>
        <time>2015-10-30T10:08:05Z</time>
      </trkpt>
      <trkpt lat="42.94695" lon="0.15573">
        <ele>2066</ele>
        <time>2015-10-30T10:08:07Z</time>
      </trkpt>
      <trkpt lat="42.94693" lon="0.15573">
        <ele>2067</ele>
        <time>2015-10-30T10:08:09Z</time>
      </trkpt>
      <trkpt lat="42.94676" lon="0.15574">
        <ele>2072</ele>
        <time>2015-10-30T10:08:35Z</time>
      </trkpt>
      <trkpt lat="42.94675" lon="0.15572">
        <ele>2073</ele>
        <time>2015-10-30T10:08:38Z</time>
      </trkpt>
      <trkpt lat="42.94672" lon="0.1557">
        <ele>2074</ele>
        <time>2015-10-30T10:08:43Z</time>
      </trkpt>
      <trkpt lat="42.94666" lon="0.15565">
        <ele>2074</ele>
        <time>2015-10-30T10:08:52Z</time>
      </trkpt>
      <trkpt lat="42.94666" lon="0.15562">
        <ele>2073</ele>
        <time>2015-10-30T10:09:30Z</time>
      </trkpt>
      <trkpt lat="42.94667" lon="0.1556">
        <ele>2073</ele>
        <time>2015-10-30T10:09:32Z</time>
      </trkpt>
      <trkpt lat="42.94668" lon="0.15558">
        <ele>2074</ele>
        <time>2015-10-30T10:09:34Z</time>
      </trkpt>
      <trkpt lat="42.94672" lon="0.15551">
        <ele>2076</ele>
        <time>2015-10-30T10:09:41Z</time>
      </trkpt>
      <trkpt lat="42.9468" lon="0.15548">
        <ele>2078</ele>
        <time>2015-10-30T10:09:56Z</time>
      </trkpt>
      <trkpt lat="42.94681" lon="0.15544">
        <ele>2078</ele>
        <time>2015-10-30T10:10:00Z</time>
      </trkpt>
      <trkpt lat="42.94682" lon="0.15542">
        <ele>2080</ele>
        <time>2015-10-30T10:10:02Z</time>
      </trkpt>
      <trkpt lat="42.94681" lon="0.1554">
        <ele>2080</ele>
        <time>2015-10-30T10:10:04Z</time>
      </trkpt>
      <trkpt lat="42.94681" lon="0.15537">
        <ele>2080</ele>
        <time>2015-10-30T10:10:07Z</time>
      </trkpt>
      <trkpt lat="42.94682" lon="0.15535">
        <ele>2082</ele>
        <time>2015-10-30T10:10:10Z</time>
      </trkpt>
      <trkpt lat="42.94685" lon="0.15532">
        <ele>2084</ele>
        <time>2015-10-30T10:10:15Z</time>
      </trkpt>
      <trkpt lat="42.94704" lon="0.15535">
        <ele>2088</ele>
        <time>2015-10-30T10:10:45Z</time>
      </trkpt>
      <trkpt lat="42.94723" lon="0.15541">
        <ele>2092</ele>
        <time>2015-10-30T10:11:16Z</time>
      </trkpt>
      <trkpt lat="42.94733" lon="0.15544">
        <ele>2093</ele>
        <time>2015-10-30T10:11:37Z</time>
      </trkpt>
      <trkpt lat="42.94737" lon="0.1555">
        <ele>2094</ele>
        <time>2015-10-30T10:11:44Z</time>
      </trkpt>
      <trkpt lat="42.94739" lon="0.1555">
        <ele>2096</ele>
        <time>2015-10-30T10:12:34Z</time>
      </trkpt>
      <trkpt lat="42.94764" lon="0.15551">
        <ele>2100</ele>
        <time>2015-10-30T10:13:05Z</time>
      </trkpt>
      <trkpt lat="42.94784" lon="0.15558">
        <ele>2107</ele>
        <time>2015-10-30T10:13:37Z</time>
      </trkpt>
      <trkpt lat="42.94807" lon="0.15558">
        <ele>2111</ele>
        <time>2015-10-30T10:14:07Z</time>
      </trkpt>
      <trkpt lat="42.94828" lon="0.15566">
        <ele>2115</ele>
        <time>2015-10-30T10:14:38Z</time>
      </trkpt>
      <trkpt lat="42.94835" lon="0.15566">
        <ele>2118</ele>
        <time>2015-10-30T10:14:50Z</time>
      </trkpt>
      <trkpt lat="42.94844" lon="0.15555">
        <ele>2120</ele>
        <time>2015-10-30T10:15:09Z</time>
      </trkpt>
      <trkpt lat="42.94844" lon="0.15546">
        <ele>2120</ele>
        <time>2015-10-30T10:15:18Z</time>
      </trkpt>
      <trkpt lat="42.94843" lon="0.15545">
        <ele>2121</ele>
        <time>2015-10-30T10:15:20Z</time>
      </trkpt>
      <trkpt lat="42.9484" lon="0.15542">
        <ele>2122</ele>
        <time>2015-10-30T10:15:25Z</time>
      </trkpt>
      <trkpt lat="42.94837" lon="0.15538">
        <ele>2123</ele>
        <time>2015-10-30T10:16:01Z</time>
      </trkpt>
      <trkpt lat="42.94818" lon="0.15521">
        <ele>2122</ele>
        <time>2015-10-30T10:16:31Z</time>
      </trkpt>
      <trkpt lat="42.94817" lon="0.15518">
        <ele>2122</ele>
        <time>2015-10-30T10:16:33Z</time>
      </trkpt>
      <trkpt lat="42.94787" lon="0.15499">
        <ele>2122</ele>
        <time>2015-10-30T10:17:03Z</time>
      </trkpt>
      <trkpt lat="42.94785" lon="0.15498">
        <ele>2122</ele>
        <time>2015-10-30T10:17:05Z</time>
      </trkpt>
      <trkpt lat="42.94757" lon="0.15483">
        <ele>2121</ele>
        <time>2015-10-30T10:17:35Z</time>
      </trkpt>
      <trkpt lat="42.94733" lon="0.15463">
        <ele>2123</ele>
        <time>2015-10-30T10:18:05Z</time>
      </trkpt>
      <trkpt lat="42.94717" lon="0.15446">
        <ele>2123</ele>
        <time>2015-10-30T10:18:35Z</time>
      </trkpt>
      <trkpt lat="42.94705" lon="0.15427">
        <ele>2124</ele>
        <time>2015-10-30T10:18:53Z</time>
      </trkpt>
      <trkpt lat="42.94705" lon="0.15424">
        <ele>2125</ele>
        <time>2015-10-30T10:18:55Z</time>
      </trkpt>
      <trkpt lat="42.94708" lon="0.15409">
        <ele>2127</ele>
        <time>2015-10-30T10:19:16Z</time>
      </trkpt>
      <trkpt lat="42.94706" lon="0.15384">
        <ele>2129</ele>
        <time>2015-10-30T10:19:34Z</time>
      </trkpt>
      <trkpt lat="42.94705" lon="0.15382">
        <ele>2129</ele>
        <time>2015-10-30T10:19:36Z</time>
      </trkpt>
      <trkpt lat="42.94704" lon="0.15377">
        <ele>2130</ele>
        <time>2015-10-30T10:19:40Z</time>
      </trkpt>
      <trkpt lat="42.94703" lon="0.15373">
        <ele>2130</ele>
        <time>2015-10-30T10:19:44Z</time>
      </trkpt>
      <trkpt lat="42.94702" lon="0.15368">
        <ele>2130</ele>
        <time>2015-10-30T10:19:48Z</time>
      </trkpt>
      <trkpt lat="42.94701" lon="0.15337">
        <ele>2134</ele>
        <time>2015-10-30T10:20:18Z</time>
      </trkpt>
      <trkpt lat="42.94699" lon="0.15297">
        <ele>2132</ele>
        <time>2015-10-30T10:20:49Z</time>
      </trkpt>
      <trkpt lat="42.94699" lon="0.15292">
        <ele>2133</ele>
        <time>2015-10-30T10:20:53Z</time>
      </trkpt>
      <trkpt lat="42.94705" lon="0.15254">
        <ele>2135</ele>
        <time>2015-10-30T10:21:25Z</time>
      </trkpt>
      <trkpt lat="42.94704" lon="0.15251">
        <ele>2136</ele>
        <time>2015-10-30T10:21:28Z</time>
      </trkpt>
      <trkpt lat="42.94704" lon="0.15247">
        <ele>2136</ele>
        <time>2015-10-30T10:21:31Z</time>
      </trkpt>
      <trkpt lat="42.94704" lon="0.15239">
        <ele>2136</ele>
        <time>2015-10-30T10:21:37Z</time>
      </trkpt>
      <trkpt lat="42.94706" lon="0.15205">
        <ele>2137</ele>
        <time>2015-10-30T10:22:07Z</time>
      </trkpt>
      <trkpt lat="42.94711" lon="0.15192">
        <ele>2138</ele>
        <time>2015-10-30T10:22:17Z</time>
      </trkpt>
      <trkpt lat="42.94712" lon="0.1519">
        <ele>2137</ele>
        <time>2015-10-30T10:22:19Z</time>
      </trkpt>
      <trkpt lat="42.9472" lon="0.15159">
        <ele>2141</ele>
        <time>2015-10-30T10:22:59Z</time>
      </trkpt>
      <trkpt lat="42.9472" lon="0.15156">
        <ele>2143</ele>
        <time>2015-10-30T10:23:14Z</time>
      </trkpt>
      <trkpt lat="42.9472" lon="0.15154">
        <ele>2143</ele>
        <time>2015-10-30T10:23:16Z</time>
      </trkpt>
      <trkpt lat="42.9472" lon="0.15151">
        <ele>2143</ele>
        <time>2015-10-30T10:23:19Z</time>
      </trkpt>
      <trkpt lat="42.94719" lon="0.15149">
        <ele>2143</ele>
        <time>2015-10-30T10:23:22Z</time>
      </trkpt>
      <trkpt lat="42.94731" lon="0.15112">
        <ele>2142</ele>
        <time>2015-10-30T10:23:48Z</time>
      </trkpt>
      <trkpt lat="42.94736" lon="0.15107">
        <ele>2144</ele>
        <time>2015-10-30T10:23:56Z</time>
      </trkpt>
      <trkpt lat="42.94736" lon="0.15103">
        <ele>2145</ele>
        <time>2015-10-30T10:24:03Z</time>
      </trkpt>
      <trkpt lat="42.94735" lon="0.15095">
        <ele>2145</ele>
        <time>2015-10-30T10:24:09Z</time>
      </trkpt>
      <trkpt lat="42.94739" lon="0.15075">
        <ele>2148</ele>
        <time>2015-10-30T10:24:27Z</time>
      </trkpt>
      <trkpt lat="42.94743" lon="0.15063">
        <ele>2150</ele>
        <time>2015-10-30T10:24:42Z</time>
      </trkpt>
      <trkpt lat="42.94745" lon="0.1503">
        <ele>2155</ele>
        <time>2015-10-30T10:25:12Z</time>
      </trkpt>
      <trkpt lat="42.94752" lon="0.15017">
        <ele>2157</ele>
        <time>2015-10-30T10:25:27Z</time>
      </trkpt>
      <trkpt lat="42.94752" lon="0.15015">
        <ele>2157</ele>
        <time>2015-10-30T10:25:29Z</time>
      </trkpt>
      <trkpt lat="42.94751" lon="0.15013">
        <ele>2158</ele>
        <time>2015-10-30T10:25:31Z</time>
      </trkpt>
      <trkpt lat="42.94753" lon="0.14998">
        <ele>2162</ele>
        <time>2015-10-30T10:25:49Z</time>
      </trkpt>
      <trkpt lat="42.94754" lon="0.14997">
        <ele>2163</ele>
        <time>2015-10-30T10:25:53Z</time>
      </trkpt>
      <trkpt lat="42.94757" lon="0.14994">
        <ele>2163</ele>
        <time>2015-10-30T10:26:01Z</time>
      </trkpt>
      <trkpt lat="42.94758" lon="0.14982">
        <ele>2168</ele>
        <time>2015-10-30T10:26:25Z</time>
      </trkpt>
      <trkpt lat="42.94757" lon="0.1498">
        <ele>2168</ele>
        <time>2015-10-30T10:26:27Z</time>
      </trkpt>
      <trkpt lat="42.94757" lon="0.14978">
        <ele>2169</ele>
        <time>2015-10-30T10:26:29Z</time>
      </trkpt>
      <trkpt lat="42.94757" lon="0.14971">
        <ele>2171</ele>
        <time>2015-10-30T10:26:36Z</time>
      </trkpt>
      <trkpt lat="42.94756" lon="0.14966">
        <ele>2171</ele>
        <time>2015-10-30T10:26:40Z</time>
      </trkpt>
      <trkpt lat="42.94757" lon="0.14957">
        <ele>2170</ele>
        <time>2015-10-30T10:26:49Z</time>
      </trkpt>
      <trkpt lat="42.94757" lon="0.14954">
        <ele>2170</ele>
        <time>2015-10-30T10:26:52Z</time>
      </trkpt>
      <trkpt lat="42.94757" lon="0.14933">
        <ele>2169</ele>
        <time>2015-10-30T10:27:12Z</time>
      </trkpt>
      <trkpt lat="42.94756" lon="0.14931">
        <ele>2169</ele>
        <time>2015-10-30T10:27:19Z</time>
      </trkpt>
      <trkpt lat="42.94755" lon="0.14919">
        <ele>2163</ele>
        <time>2015-10-30T10:27:28Z</time>
      </trkpt>
      <trkpt lat="42.94757" lon="0.14909">
        <ele>2162</ele>
        <time>2015-10-30T10:27:36Z</time>
      </trkpt>
      <trkpt lat="42.94756" lon="0.14904">
        <ele>2162</ele>
        <time>2015-10-30T10:27:40Z</time>
      </trkpt>
      <trkpt lat="42.94755" lon="0.14902">
        <ele>2162</ele>
        <time>2015-10-30T10:27:42Z</time>
      </trkpt>
      <trkpt lat="42.94754" lon="0.14891">
        <ele>2165</ele>
        <time>2015-10-30T10:27:50Z</time>
      </trkpt>
      <trkpt lat="42.94757" lon="0.14879">
        <ele>2167</ele>
        <time>2015-10-30T10:28:04Z</time>
      </trkpt>
      <trkpt lat="42.94759" lon="0.14875">
        <ele>2170</ele>
        <time>2015-10-30T10:28:11Z</time>
      </trkpt>
      <trkpt lat="42.94758" lon="0.14873">
        <ele>2170</ele>
        <time>2015-10-30T10:28:14Z</time>
      </trkpt>
      <trkpt lat="42.94758" lon="0.14871">
        <ele>2170</ele>
        <time>2015-10-30T10:28:16Z</time>
      </trkpt>
      <trkpt lat="42.94758" lon="0.14856">
        <ele>2174</ele>
        <time>2015-10-30T10:28:35Z</time>
      </trkpt>
      <trkpt lat="42.94757" lon="0.14854">
        <ele>2174</ele>
        <time>2015-10-30T10:28:38Z</time>
      </trkpt>
      <trkpt lat="42.94753" lon="0.14832">
        <ele>2176</ele>
        <time>2015-10-30T10:29:02Z</time>
      </trkpt>
      <trkpt lat="42.94752" lon="0.14825">
        <ele>2180</ele>
        <time>2015-10-30T10:29:11Z</time>
      </trkpt>
      <trkpt lat="42.94752" lon="0.14824">
        <ele>2182</ele>
        <time>2015-10-30T10:29:14Z</time>
      </trkpt>
      <trkpt lat="42.94753" lon="0.14811">
        <ele>2187</ele>
        <time>2015-10-30T10:29:34Z</time>
      </trkpt>
      <trkpt lat="42.94755" lon="0.14808">
        <ele>2188</ele>
        <time>2015-10-30T10:30:18Z</time>
      </trkpt>
      <trkpt lat="42.94757" lon="0.14809">
        <ele>2189</ele>
        <time>2015-10-30T10:32:20Z</time>
      </trkpt>
      <trkpt lat="42.94771" lon="0.14828">
        <ele>2192</ele>
        <time>2015-10-30T10:32:44Z</time>
      </trkpt>
      <trkpt lat="42.94782" lon="0.14859">
        <ele>2198</ele>
        <time>2015-10-30T10:33:16Z</time>
      </trkpt>
      <trkpt lat="42.94793" lon="0.14883">
        <ele>2203</ele>
        <time>2015-10-30T10:33:48Z</time>
      </trkpt>
      <trkpt lat="42.94804" lon="0.14907">
        <ele>2208</ele>
        <time>2015-10-30T10:34:20Z</time>
      </trkpt>
      <trkpt lat="42.94802" lon="0.14926">
        <ele>2211</ele>
        <time>2015-10-30T10:34:43Z</time>
      </trkpt>
      <trkpt lat="42.94812" lon="0.14933">
        <ele>2215</ele>
        <time>2015-10-30T10:34:59Z</time>
      </trkpt>
      <trkpt lat="42.94832" lon="0.14946">
        <ele>2218</ele>
        <time>2015-10-30T10:35:29Z</time>
      </trkpt>
      <trkpt lat="42.9484" lon="0.14948">
        <ele>2219</ele>
        <time>2015-10-30T10:37:12Z</time>
      </trkpt>
      <trkpt lat="42.94853" lon="0.14961">
        <ele>2224</ele>
        <time>2015-10-30T10:37:30Z</time>
      </trkpt>
      <trkpt lat="42.94854" lon="0.14976">
        <ele>2227</ele>
        <time>2015-10-30T10:37:45Z</time>
      </trkpt>
      <trkpt lat="42.94853" lon="0.14977">
        <ele>2228</ele>
        <time>2015-10-30T10:37:48Z</time>
      </trkpt>
      <trkpt lat="42.94847" lon="0.14982">
        <ele>2230</ele>
        <time>2015-10-30T10:37:58Z</time>
      </trkpt>
      <trkpt lat="42.94846" lon="0.14988">
        <ele>2232</ele>
        <time>2015-10-30T10:38:04Z</time>
      </trkpt>
      <trkpt lat="42.94853" lon="0.15022">
        <ele>2235</ele>
        <time>2015-10-30T10:38:35Z</time>
      </trkpt>
      <trkpt lat="42.94856" lon="0.15032">
        <ele>2237</ele>
        <time>2015-10-30T10:38:46Z</time>
      </trkpt>
      <trkpt lat="42.94863" lon="0.15034">
        <ele>2237</ele>
        <time>2015-10-30T10:38:54Z</time>
      </trkpt>
      <trkpt lat="42.94869" lon="0.1505">
        <ele>2240</ele>
        <time>2015-10-30T10:39:18Z</time>
      </trkpt>
      <trkpt lat="42.94878" lon="0.15064">
        <ele>2245</ele>
        <time>2015-10-30T10:39:41Z</time>
      </trkpt>
      <trkpt lat="42.94879" lon="0.15072">
        <ele>2244</ele>
        <time>2015-10-30T10:39:51Z</time>
      </trkpt>
      <trkpt lat="42.94883" lon="0.15077">
        <ele>2246</ele>
        <time>2015-10-30T10:39:59Z</time>
      </trkpt>
      <trkpt lat="42.94886" lon="0.15086">
        <ele>2248</ele>
        <time>2015-10-30T10:40:09Z</time>
      </trkpt>
      <trkpt lat="42.94903" lon="0.15102">
        <ele>2252</ele>
        <time>2015-10-30T10:40:39Z</time>
      </trkpt>
      <trkpt lat="42.94908" lon="0.15109">
        <ele>2254</ele>
        <time>2015-10-30T10:40:52Z</time>
      </trkpt>
      <trkpt lat="42.94911" lon="0.15124">
        <ele>2257</ele>
        <time>2015-10-30T10:41:55Z</time>
      </trkpt>
      <trkpt lat="42.9493" lon="0.15132">
        <ele>2262</ele>
        <time>2015-10-30T10:42:25Z</time>
      </trkpt>
      <trkpt lat="42.94945" lon="0.15148">
        <ele>2266</ele>
        <time>2015-10-30T10:42:56Z</time>
      </trkpt>
      <trkpt lat="42.94942" lon="0.15161">
        <ele>2269</ele>
        <time>2015-10-30T10:43:15Z</time>
      </trkpt>
      <trkpt lat="42.94956" lon="0.15172">
        <ele>2271</ele>
        <time>2015-10-30T10:43:42Z</time>
      </trkpt>
      <trkpt lat="42.94958" lon="0.15172">
        <ele>2276</ele>
        <time>2015-10-30T10:44:14Z</time>
      </trkpt>
      <trkpt lat="42.94977" lon="0.15192">
        <ele>2283</ele>
        <time>2015-10-30T10:44:47Z</time>
      </trkpt>
      <trkpt lat="42.94985" lon="0.15199">
        <ele>2286</ele>
        <time>2015-10-30T10:45:00Z</time>
      </trkpt>
      <trkpt lat="42.94989" lon="0.15199">
        <ele>2286</ele>
        <time>2015-10-30T10:45:05Z</time>
      </trkpt>
      <trkpt lat="42.94999" lon="0.15206">
        <ele>2287</ele>
        <time>2015-10-30T10:45:21Z</time>
      </trkpt>
      <trkpt lat="42.95018" lon="0.15243">
        <ele>2289</ele>
        <time>2015-10-30T10:46:12Z</time>
      </trkpt>
      <trkpt lat="42.95018" lon="0.15245">
        <ele>2291</ele>
        <time>2015-10-30T10:46:15Z</time>
      </trkpt>
      <trkpt lat="42.95019" lon="0.15252">
        <ele>2295</ele>
        <time>2015-10-30T10:46:24Z</time>
      </trkpt>
      <trkpt lat="42.95018" lon="0.15256">
        <ele>2297</ele>
        <time>2015-10-30T10:46:31Z</time>
      </trkpt>
      <trkpt lat="42.95019" lon="0.15267">
        <ele>2298</ele>
        <time>2015-10-30T10:46:42Z</time>
      </trkpt>
      <trkpt lat="42.95018" lon="0.15265">
        <ele>2297</ele>
        <time>2015-10-30T10:55:06Z</time>
      </trkpt>
      <trkpt lat="42.95018" lon="0.15266">
        <ele>2299</ele>
        <time>2015-10-30T11:28:40Z</time>
      </trkpt>
      <trkpt lat="42.95022" lon="0.15278">
        <ele>2310</ele>
        <time>2015-10-30T11:51:30Z</time>
      </trkpt>
      <trkpt lat="42.9502" lon="0.15273">
        <ele>2292</ele>
        <time>2015-10-30T11:51:32Z</time>
      </trkpt>
      <trkpt lat="42.95022" lon="0.15263">
        <ele>2299</ele>
        <time>2015-10-30T11:51:33Z</time>
      </trkpt>
      <trkpt lat="42.9502" lon="0.15268">
        <ele>2299</ele>
        <time>2015-10-30T11:51:50Z</time>
      </trkpt>
      <trkpt lat="42.9502" lon="0.1527">
        <ele>2292</ele>
        <time>2015-10-30T11:53:44Z</time>
      </trkpt>
      <trkpt lat="42.95021" lon="0.15272">
        <ele>2293</ele>
        <time>2015-10-30T11:53:46Z</time>
      </trkpt>
      <trkpt lat="42.95032" lon="0.15287">
        <ele>2296</ele>
        <time>2015-10-30T11:54:02Z</time>
      </trkpt>
      <trkpt lat="42.9503" lon="0.15285">
        <ele>2296</ele>
        <time>2015-10-30T11:54:21Z</time>
      </trkpt>
      <trkpt lat="42.95021" lon="0.15281">
        <ele>2299</ele>
        <time>2015-10-30T11:54:53Z</time>
      </trkpt>
      <trkpt lat="42.95022" lon="0.15279">
        <ele>2299</ele>
        <time>2015-10-30T11:55:39Z</time>
      </trkpt>
      <trkpt lat="42.95024" lon="0.15277">
        <ele>2299</ele>
        <time>2015-10-30T11:55:41Z</time>
      </trkpt>
      <trkpt lat="42.95026" lon="0.15273">
        <ele>2298</ele>
        <time>2015-10-30T11:55:53Z</time>
      </trkpt>
      <trkpt lat="42.95048" lon="0.15254">
        <ele>2292</ele>
        <time>2015-10-30T11:56:24Z</time>
      </trkpt>
      <trkpt lat="42.95071" lon="0.15234">
        <ele>2286</ele>
        <time>2015-10-30T11:56:54Z</time>
      </trkpt>
      <trkpt lat="42.95075" lon="0.15219">
        <ele>2283</ele>
        <time>2015-10-30T11:57:07Z</time>
      </trkpt>
      <trkpt lat="42.95078" lon="0.15216">
        <ele>2283</ele>
        <time>2015-10-30T11:57:12Z</time>
      </trkpt>
      <trkpt lat="42.95078" lon="0.1521">
        <ele>2282</ele>
        <time>2015-10-30T11:57:16Z</time>
      </trkpt>
      <trkpt lat="42.95079" lon="0.15209">
        <ele>2282</ele>
        <time>2015-10-30T11:57:18Z</time>
      </trkpt>
      <trkpt lat="42.9508" lon="0.15208">
        <ele>2282</ele>
        <time>2015-10-30T11:57:20Z</time>
      </trkpt>
      <trkpt lat="42.95101" lon="0.15188">
        <ele>2273</ele>
        <time>2015-10-30T11:57:50Z</time>
      </trkpt>
      <trkpt lat="42.95113" lon="0.15171">
        <ele>2269</ele>
        <time>2015-10-30T11:58:12Z</time>
      </trkpt>
      <trkpt lat="42.95117" lon="0.15171">
        <ele>2268</ele>
        <time>2015-10-30T11:58:16Z</time>
      </trkpt>
      <trkpt lat="42.95118" lon="0.1517">
        <ele>2267</ele>
        <time>2015-10-30T11:58:18Z</time>
      </trkpt>
      <trkpt lat="42.95133" lon="0.15138">
        <ele>2261</ele>
        <time>2015-10-30T11:58:48Z</time>
      </trkpt>
      <trkpt lat="42.95136" lon="0.15135">
        <ele>2260</ele>
        <time>2015-10-30T11:58:52Z</time>
      </trkpt>
      <trkpt lat="42.95155" lon="0.15106">
        <ele>2253</ele>
        <time>2015-10-30T11:59:22Z</time>
      </trkpt>
      <trkpt lat="42.95184" lon="0.15079">
        <ele>2247</ele>
        <time>2015-10-30T11:59:53Z</time>
      </trkpt>
      <trkpt lat="42.95189" lon="0.15076">
        <ele>2247</ele>
        <time>2015-10-30T11:59:58Z</time>
      </trkpt>
      <trkpt lat="42.95205" lon="0.1508">
        <ele>2244</ele>
        <time>2015-10-30T12:00:12Z</time>
      </trkpt>
      <trkpt lat="42.95219" lon="0.15056">
        <ele>2241</ele>
        <time>2015-10-30T12:00:43Z</time>
      </trkpt>
      <trkpt lat="42.95245" lon="0.15026">
        <ele>2237</ele>
        <time>2015-10-30T12:01:13Z</time>
      </trkpt>
      <trkpt lat="42.95249" lon="0.15021">
        <ele>2236</ele>
        <time>2015-10-30T12:01:19Z</time>
      </trkpt>
      <trkpt lat="42.95256" lon="0.15027">
        <ele>2232</ele>
        <time>2015-10-30T12:01:27Z</time>
      </trkpt>
      <trkpt lat="42.95255" lon="0.15029">
        <ele>2231</ele>
        <time>2015-10-30T12:01:47Z</time>
      </trkpt>
      <trkpt lat="42.95254" lon="0.15031">
        <ele>2231</ele>
        <time>2015-10-30T12:01:49Z</time>
      </trkpt>
      <trkpt lat="42.95252" lon="0.15039">
        <ele>2229</ele>
        <time>2015-10-30T12:01:59Z</time>
      </trkpt>
      <trkpt lat="42.95248" lon="0.15048">
        <ele>2226</ele>
        <time>2015-10-30T12:02:11Z</time>
      </trkpt>
      <trkpt lat="42.95252" lon="0.15049">
        <ele>2225</ele>
        <time>2015-10-30T12:02:17Z</time>
      </trkpt>
      <trkpt lat="42.95255" lon="0.15056">
        <ele>2222</ele>
        <time>2015-10-30T12:02:36Z</time>
      </trkpt>
      <trkpt lat="42.95256" lon="0.15059">
        <ele>2220</ele>
        <time>2015-10-30T12:02:44Z</time>
      </trkpt>
      <trkpt lat="42.95271" lon="0.15054">
        <ele>2214</ele>
        <time>2015-10-30T12:03:08Z</time>
      </trkpt>
      <trkpt lat="42.95274" lon="0.1506">
        <ele>2211</ele>
        <time>2015-10-30T12:03:17Z</time>
      </trkpt>
      <trkpt lat="42.95274" lon="0.15062">
        <ele>2210</ele>
        <time>2015-10-30T12:03:21Z</time>
      </trkpt>
      <trkpt lat="42.95269" lon="0.15069">
        <ele>2209</ele>
        <time>2015-10-30T12:04:24Z</time>
      </trkpt>
      <trkpt lat="42.95247" lon="0.151">
        <ele>2206</ele>
        <time>2015-10-30T12:04:54Z</time>
      </trkpt>
      <trkpt lat="42.9524" lon="0.15112">
        <ele>2205</ele>
        <time>2015-10-30T12:05:07Z</time>
      </trkpt>
      <trkpt lat="42.95239" lon="0.15113">
        <ele>2205</ele>
        <time>2015-10-30T12:05:09Z</time>
      </trkpt>
      <trkpt lat="42.95237" lon="0.15113">
        <ele>2205</ele>
        <time>2015-10-30T12:05:11Z</time>
      </trkpt>
      <trkpt lat="42.95235" lon="0.15114">
        <ele>2205</ele>
        <time>2015-10-30T12:05:14Z</time>
      </trkpt>
      <trkpt lat="42.95221" lon="0.1514">
        <ele>2204</ele>
        <time>2015-10-30T12:05:45Z</time>
      </trkpt>
      <trkpt lat="42.95219" lon="0.15178">
        <ele>2202</ele>
        <time>2015-10-30T12:06:39Z</time>
      </trkpt>
      <trkpt lat="42.95215" lon="0.152">
        <ele>2202</ele>
        <time>2015-10-30T12:06:59Z</time>
      </trkpt>
      <trkpt lat="42.95216" lon="0.15203">
        <ele>2201</ele>
        <time>2015-10-30T12:07:09Z</time>
      </trkpt>
      <trkpt lat="42.95215" lon="0.15208">
        <ele>2200</ele>
        <time>2015-10-30T12:07:13Z</time>
      </trkpt>
      <trkpt lat="42.95194" lon="0.15234">
        <ele>2199</ele>
        <time>2015-10-30T12:07:41Z</time>
      </trkpt>
      <trkpt lat="42.95192" lon="0.15246">
        <ele>2198</ele>
        <time>2015-10-30T12:07:51Z</time>
      </trkpt>
      <trkpt lat="42.95181" lon="0.15256">
        <ele>2198</ele>
        <time>2015-10-30T12:08:13Z</time>
      </trkpt>
      <trkpt lat="42.95182" lon="0.15262">
        <ele>2199</ele>
        <time>2015-10-30T12:08:19Z</time>
      </trkpt>
      <trkpt lat="42.95183" lon="0.15267">
        <ele>2199</ele>
        <time>2015-10-30T12:08:24Z</time>
      </trkpt>
      <trkpt lat="42.95181" lon="0.15268">
        <ele>2200</ele>
        <time>2015-10-30T12:08:33Z</time>
      </trkpt>
      <trkpt lat="42.95179" lon="0.15276">
        <ele>2200</ele>
        <time>2015-10-30T12:08:43Z</time>
      </trkpt>
      <trkpt lat="42.95176" lon="0.153">
        <ele>2201</ele>
        <time>2015-10-30T12:09:14Z</time>
      </trkpt>
      <trkpt lat="42.95177" lon="0.15313">
        <ele>2201</ele>
        <time>2015-10-30T12:09:29Z</time>
      </trkpt>
      <trkpt lat="42.95178" lon="0.15313">
        <ele>2200</ele>
        <time>2015-10-30T12:09:34Z</time>
      </trkpt>
      <trkpt lat="42.9518" lon="0.15315">
        <ele>2200</ele>
        <time>2015-10-30T12:09:40Z</time>
      </trkpt>
      <trkpt lat="42.95187" lon="0.1532">
        <ele>2197</ele>
        <time>2015-10-30T12:09:56Z</time>
      </trkpt>
      <trkpt lat="42.95187" lon="0.15322">
        <ele>2197</ele>
        <time>2015-10-30T12:09:58Z</time>
      </trkpt>
      <trkpt lat="42.95173" lon="0.15352">
        <ele>2191</ele>
        <time>2015-10-30T12:10:28Z</time>
      </trkpt>
      <trkpt lat="42.95167" lon="0.15375">
        <ele>2188</ele>
        <time>2015-10-30T12:10:50Z</time>
      </trkpt>
      <trkpt lat="42.95163" lon="0.15377">
        <ele>2188</ele>
        <time>2015-10-30T12:10:54Z</time>
      </trkpt>
      <trkpt lat="42.9515" lon="0.15407">
        <ele>2188</ele>
        <time>2015-10-30T12:11:18Z</time>
      </trkpt>
      <trkpt lat="42.95148" lon="0.15407">
        <ele>2188</ele>
        <time>2015-10-30T12:11:20Z</time>
      </trkpt>
      <trkpt lat="42.95146" lon="0.15409">
        <ele>2188</ele>
        <time>2015-10-30T12:11:23Z</time>
      </trkpt>
      <trkpt lat="42.95148" lon="0.15411">
        <ele>2188</ele>
        <time>2015-10-30T12:11:25Z</time>
      </trkpt>
      <trkpt lat="42.95151" lon="0.1542">
        <ele>2189</ele>
        <time>2015-10-30T12:11:33Z</time>
      </trkpt>
      <trkpt lat="42.9515" lon="0.15422">
        <ele>2190</ele>
        <time>2015-10-30T12:11:35Z</time>
      </trkpt>
      <trkpt lat="42.95127" lon="0.15451">
        <ele>2190</ele>
        <time>2015-10-30T12:12:05Z</time>
      </trkpt>
      <trkpt lat="42.95116" lon="0.15483">
        <ele>2193</ele>
        <time>2015-10-30T12:12:30Z</time>
      </trkpt>
      <trkpt lat="42.95117" lon="0.15485">
        <ele>2193</ele>
        <time>2015-10-30T12:12:36Z</time>
      </trkpt>
      <trkpt lat="42.9512" lon="0.1549">
        <ele>2194</ele>
        <time>2015-10-30T12:12:41Z</time>
      </trkpt>
      <trkpt lat="42.95119" lon="0.15492">
        <ele>2194</ele>
        <time>2015-10-30T12:12:48Z</time>
      </trkpt>
      <trkpt lat="42.9512" lon="0.15497">
        <ele>2194</ele>
        <time>2015-10-30T12:13:04Z</time>
      </trkpt>
      <trkpt lat="42.95123" lon="0.155">
        <ele>2192</ele>
        <time>2015-10-30T12:13:10Z</time>
      </trkpt>
      <trkpt lat="42.95123" lon="0.15503">
        <ele>2192</ele>
        <time>2015-10-30T12:13:13Z</time>
      </trkpt>
      <trkpt lat="42.95124" lon="0.15505">
        <ele>2191</ele>
        <time>2015-10-30T12:13:16Z</time>
      </trkpt>
      <trkpt lat="42.95123" lon="0.15507">
        <ele>2190</ele>
        <time>2015-10-30T12:13:19Z</time>
      </trkpt>
      <trkpt lat="42.95122" lon="0.15508">
        <ele>2189</ele>
        <time>2015-10-30T12:13:22Z</time>
      </trkpt>
      <trkpt lat="42.95122" lon="0.15511">
        <ele>2189</ele>
        <time>2015-10-30T12:13:25Z</time>
      </trkpt>
      <trkpt lat="42.95123" lon="0.15513">
        <ele>2189</ele>
        <time>2015-10-30T12:13:28Z</time>
      </trkpt>
      <trkpt lat="42.95122" lon="0.15515">
        <ele>2188</ele>
        <time>2015-10-30T12:13:31Z</time>
      </trkpt>
      <trkpt lat="42.95123" lon="0.15517">
        <ele>2187</ele>
        <time>2015-10-30T12:13:34Z</time>
      </trkpt>
      <trkpt lat="42.95122" lon="0.15519">
        <ele>2186</ele>
        <time>2015-10-30T12:13:37Z</time>
      </trkpt>
      <trkpt lat="42.95113" lon="0.15542">
        <ele>2179</ele>
        <time>2015-10-30T12:13:57Z</time>
      </trkpt>
      <trkpt lat="42.95113" lon="0.15548">
        <ele>2179</ele>
        <time>2015-10-30T12:14:01Z</time>
      </trkpt>
      <trkpt lat="42.9511" lon="0.1556">
        <ele>2177</ele>
        <time>2015-10-30T12:14:11Z</time>
      </trkpt>
      <trkpt lat="42.95111" lon="0.15568">
        <ele>2175</ele>
        <time>2015-10-30T12:14:17Z</time>
      </trkpt>
      <trkpt lat="42.95114" lon="0.15568">
        <ele>2175</ele>
        <time>2015-10-30T12:14:19Z</time>
      </trkpt>
      <trkpt lat="42.95115" lon="0.15571">
        <ele>2174</ele>
        <time>2015-10-30T12:14:24Z</time>
      </trkpt>
      <trkpt lat="42.95108" lon="0.15579">
        <ele>2172</ele>
        <time>2015-10-30T12:14:36Z</time>
      </trkpt>
      <trkpt lat="42.95109" lon="0.15581">
        <ele>2172</ele>
        <time>2015-10-30T12:14:39Z</time>
      </trkpt>
      <trkpt lat="42.95111" lon="0.15582">
        <ele>2172</ele>
        <time>2015-10-30T12:14:41Z</time>
      </trkpt>
      <trkpt lat="42.9512" lon="0.15592">
        <ele>2166</ele>
        <time>2015-10-30T12:14:58Z</time>
      </trkpt>
      <trkpt lat="42.95119" lon="0.15595">
        <ele>2166</ele>
        <time>2015-10-30T12:15:01Z</time>
      </trkpt>
      <trkpt lat="42.95111" lon="0.15626">
        <ele>2158</ele>
        <time>2015-10-30T12:15:42Z</time>
      </trkpt>
      <trkpt lat="42.95111" lon="0.15628">
        <ele>2158</ele>
        <time>2015-10-30T12:15:45Z</time>
      </trkpt>
      <trkpt lat="42.95117" lon="0.15662">
        <ele>2156</ele>
        <time>2015-10-30T12:16:15Z</time>
      </trkpt>
      <trkpt lat="42.95112" lon="0.15689">
        <ele>2152</ele>
        <time>2015-10-30T12:16:35Z</time>
      </trkpt>
      <trkpt lat="42.9511" lon="0.1569">
        <ele>2152</ele>
        <time>2015-10-30T12:16:37Z</time>
      </trkpt>
      <trkpt lat="42.95099" lon="0.1572">
        <ele>2146</ele>
        <time>2015-10-30T12:17:07Z</time>
      </trkpt>
      <trkpt lat="42.95092" lon="0.15738">
        <ele>2141</ele>
        <time>2015-10-30T12:17:21Z</time>
      </trkpt>
      <trkpt lat="42.9508" lon="0.15742">
        <ele>2139</ele>
        <time>2015-10-30T12:17:34Z</time>
      </trkpt>
      <trkpt lat="42.9508" lon="0.15745">
        <ele>2138</ele>
        <time>2015-10-30T12:17:36Z</time>
      </trkpt>
      <trkpt lat="42.9508" lon="0.15747">
        <ele>2138</ele>
        <time>2015-10-30T12:17:38Z</time>
      </trkpt>
      <trkpt lat="42.95082" lon="0.15752">
        <ele>2137</ele>
        <time>2015-10-30T12:17:43Z</time>
      </trkpt>
      <trkpt lat="42.95082" lon="0.15754">
        <ele>2137</ele>
        <time>2015-10-30T12:17:46Z</time>
      </trkpt>
      <trkpt lat="42.9508" lon="0.15754">
        <ele>2137</ele>
        <time>2015-10-30T12:17:48Z</time>
      </trkpt>
      <trkpt lat="42.95079" lon="0.15758">
        <ele>2136</ele>
        <time>2015-10-30T12:17:52Z</time>
      </trkpt>
      <trkpt lat="42.95081" lon="0.1577">
        <ele>2132</ele>
        <time>2015-10-30T12:18:06Z</time>
      </trkpt>
      <trkpt lat="42.95079" lon="0.1577">
        <ele>2132</ele>
        <time>2015-10-30T12:18:08Z</time>
      </trkpt>
      <trkpt lat="42.95053" lon="0.15761">
        <ele>2128</ele>
        <time>2015-10-30T12:18:31Z</time>
      </trkpt>
      <trkpt lat="42.95051" lon="0.15758">
        <ele>2127</ele>
        <time>2015-10-30T12:18:33Z</time>
      </trkpt>
      <trkpt lat="42.95048" lon="0.15718">
        <ele>2123</ele>
        <time>2015-10-30T12:19:04Z</time>
      </trkpt>
      <trkpt lat="42.95047" lon="0.15716">
        <ele>2123</ele>
        <time>2015-10-30T12:19:06Z</time>
      </trkpt>
      <trkpt lat="42.95045" lon="0.15715">
        <ele>2123</ele>
        <time>2015-10-30T12:19:08Z</time>
      </trkpt>
      <trkpt lat="42.95042" lon="0.15714">
        <ele>2122</ele>
        <time>2015-10-30T12:19:10Z</time>
      </trkpt>
      <trkpt lat="42.95039" lon="0.15713">
        <ele>2121</ele>
        <time>2015-10-30T12:19:14Z</time>
      </trkpt>
      <trkpt lat="42.95033" lon="0.15713">
        <ele>2119</ele>
        <time>2015-10-30T12:19:22Z</time>
      </trkpt>
      <trkpt lat="42.95032" lon="0.15712">
        <ele>2118</ele>
        <time>2015-10-30T12:19:26Z</time>
      </trkpt>
      <trkpt lat="42.95028" lon="0.15711">
        <ele>2117</ele>
        <time>2015-10-30T12:19:37Z</time>
      </trkpt>
      <trkpt lat="42.95027" lon="0.15708">
        <ele>2114</ele>
        <time>2015-10-30T12:19:40Z</time>
      </trkpt>
      <trkpt lat="42.95027" lon="0.15706">
        <ele>2114</ele>
        <time>2015-10-30T12:19:42Z</time>
      </trkpt>
      <trkpt lat="42.95025" lon="0.15705">
        <ele>2113</ele>
        <time>2015-10-30T12:19:44Z</time>
      </trkpt>
      <trkpt lat="42.95024" lon="0.15705">
        <ele>2113</ele>
        <time>2015-10-30T12:19:46Z</time>
      </trkpt>
      <trkpt lat="42.95022" lon="0.15704">
        <ele>2111</ele>
        <time>2015-10-30T12:19:49Z</time>
      </trkpt>
      <trkpt lat="42.95022" lon="0.15702">
        <ele>2110</ele>
        <time>2015-10-30T12:19:51Z</time>
      </trkpt>
      <trkpt lat="42.9502" lon="0.15695">
        <ele>2108</ele>
        <time>2015-10-30T12:19:57Z</time>
      </trkpt>
      <trkpt lat="42.95014" lon="0.1569">
        <ele>2106</ele>
        <time>2015-10-30T12:20:03Z</time>
      </trkpt>
      <trkpt lat="42.95012" lon="0.15691">
        <ele>2105</ele>
        <time>2015-10-30T12:20:05Z</time>
      </trkpt>
      <trkpt lat="42.94995" lon="0.15714">
        <ele>2099</ele>
        <time>2015-10-30T12:20:32Z</time>
      </trkpt>
      <trkpt lat="42.94995" lon="0.15716">
        <ele>2099</ele>
        <time>2015-10-30T12:20:34Z</time>
      </trkpt>
      <trkpt lat="42.94993" lon="0.15719">
        <ele>2098</ele>
        <time>2015-10-30T12:20:37Z</time>
      </trkpt>
      <trkpt lat="42.94992" lon="0.1572">
        <ele>2098</ele>
        <time>2015-10-30T12:20:39Z</time>
      </trkpt>
      <trkpt lat="42.94989" lon="0.15728">
        <ele>2096</ele>
        <time>2015-10-30T12:20:47Z</time>
      </trkpt>
      <trkpt lat="42.94987" lon="0.15729">
        <ele>2096</ele>
        <time>2015-10-30T12:20:50Z</time>
      </trkpt>
      <trkpt lat="42.94977" lon="0.1573">
        <ele>2091</ele>
        <time>2015-10-30T12:21:01Z</time>
      </trkpt>
      <trkpt lat="42.94975" lon="0.15729">
        <ele>2090</ele>
        <time>2015-10-30T12:21:03Z</time>
      </trkpt>
      <trkpt lat="42.94973" lon="0.15728">
        <ele>2090</ele>
        <time>2015-10-30T12:21:05Z</time>
      </trkpt>
      <trkpt lat="42.94965" lon="0.15731">
        <ele>2087</ele>
        <time>2015-10-30T12:21:13Z</time>
      </trkpt>
      <trkpt lat="42.94964" lon="0.15733">
        <ele>2087</ele>
        <time>2015-10-30T12:21:15Z</time>
      </trkpt>
      <trkpt lat="42.94956" lon="0.15769">
        <ele>2077</ele>
        <time>2015-10-30T12:21:46Z</time>
      </trkpt>
      <trkpt lat="42.94965" lon="0.1579">
        <ele>2075</ele>
        <time>2015-10-30T12:22:03Z</time>
      </trkpt>
      <trkpt lat="42.94975" lon="0.15816">
        <ele>2070</ele>
        <time>2015-10-30T12:22:33Z</time>
      </trkpt>
      <trkpt lat="42.94975" lon="0.15819">
        <ele>2070</ele>
        <time>2015-10-30T12:22:35Z</time>
      </trkpt>
      <trkpt lat="42.94975" lon="0.15836">
        <ele>2068</ele>
        <time>2015-10-30T12:22:50Z</time>
      </trkpt>
      <trkpt lat="42.94972" lon="0.15839">
        <ele>2068</ele>
        <time>2015-10-30T12:22:54Z</time>
      </trkpt>
      <trkpt lat="42.94971" lon="0.15841">
        <ele>2067</ele>
        <time>2015-10-30T12:22:56Z</time>
      </trkpt>
      <trkpt lat="42.94972" lon="0.15851">
        <ele>2066</ele>
        <time>2015-10-30T12:23:04Z</time>
      </trkpt>
      <trkpt lat="42.94971" lon="0.15853">
        <ele>2066</ele>
        <time>2015-10-30T12:23:06Z</time>
      </trkpt>
      <trkpt lat="42.94971" lon="0.15855">
        <ele>2066</ele>
        <time>2015-10-30T12:23:08Z</time>
      </trkpt>
      <trkpt lat="42.94972" lon="0.15868">
        <ele>2062</ele>
        <time>2015-10-30T12:23:19Z</time>
      </trkpt>
      <trkpt lat="42.94966" lon="0.15897">
        <ele>2059</ele>
        <time>2015-10-30T12:23:41Z</time>
      </trkpt>
      <trkpt lat="42.94964" lon="0.15896">
        <ele>2059</ele>
        <time>2015-10-30T12:23:43Z</time>
      </trkpt>
      <trkpt lat="42.94963" lon="0.15895">
        <ele>2058</ele>
        <time>2015-10-30T12:23:45Z</time>
      </trkpt>
      <trkpt lat="42.94959" lon="0.15894">
        <ele>2057</ele>
        <time>2015-10-30T12:23:49Z</time>
      </trkpt>
      <trkpt lat="42.94932" lon="0.159">
        <ele>2053</ele>
        <time>2015-10-30T12:24:19Z</time>
      </trkpt>
      <trkpt lat="42.94921" lon="0.15906">
        <ele>2051</ele>
        <time>2015-10-30T12:24:33Z</time>
      </trkpt>
      <trkpt lat="42.94902" lon="0.15918">
        <ele>2046</ele>
        <time>2015-10-30T12:24:55Z</time>
      </trkpt>
      <trkpt lat="42.94898" lon="0.15918">
        <ele>2046</ele>
        <time>2015-10-30T12:24:59Z</time>
      </trkpt>
      <trkpt lat="42.94897" lon="0.1592">
        <ele>2045</ele>
        <time>2015-10-30T12:25:01Z</time>
      </trkpt>
      <trkpt lat="42.94894" lon="0.1592">
        <ele>2044</ele>
        <time>2015-10-30T12:25:05Z</time>
      </trkpt>
      <trkpt lat="42.94892" lon="0.15919">
        <ele>2043</ele>
        <time>2015-10-30T12:25:08Z</time>
      </trkpt>
      <trkpt lat="42.9489" lon="0.15922">
        <ele>2042</ele>
        <time>2015-10-30T12:25:19Z</time>
      </trkpt>
      <trkpt lat="42.94889" lon="0.15923">
        <ele>2042</ele>
        <time>2015-10-30T12:25:21Z</time>
      </trkpt>
      <trkpt lat="42.94888" lon="0.15924">
        <ele>2041</ele>
        <time>2015-10-30T12:25:23Z</time>
      </trkpt>
      <trkpt lat="42.94882" lon="0.15926">
        <ele>2040</ele>
        <time>2015-10-30T12:25:29Z</time>
      </trkpt>
      <trkpt lat="42.9488" lon="0.15925">
        <ele>2040</ele>
        <time>2015-10-30T12:25:31Z</time>
      </trkpt>
      <trkpt lat="42.94878" lon="0.15926">
        <ele>2040</ele>
        <time>2015-10-30T12:25:33Z</time>
      </trkpt>
      <trkpt lat="42.94875" lon="0.15928">
        <ele>2039</ele>
        <time>2015-10-30T12:25:37Z</time>
      </trkpt>
      <trkpt lat="42.94874" lon="0.15928">
        <ele>2039</ele>
        <time>2015-10-30T12:25:39Z</time>
      </trkpt>
      <trkpt lat="42.94866" lon="0.15931">
        <ele>2036</ele>
        <time>2015-10-30T12:25:49Z</time>
      </trkpt>
      <trkpt lat="42.94864" lon="0.1593">
        <ele>2036</ele>
        <time>2015-10-30T12:25:51Z</time>
      </trkpt>
      <trkpt lat="42.94862" lon="0.1593">
        <ele>2035</ele>
        <time>2015-10-30T12:25:53Z</time>
      </trkpt>
      <trkpt lat="42.94843" lon="0.15938">
        <ele>2028</ele>
        <time>2015-10-30T12:26:10Z</time>
      </trkpt>
      <trkpt lat="42.94833" lon="0.15956">
        <ele>2024</ele>
        <time>2015-10-30T12:26:24Z</time>
      </trkpt>
      <trkpt lat="42.94816" lon="0.15966">
        <ele>2023</ele>
        <time>2015-10-30T12:26:48Z</time>
      </trkpt>
      <trkpt lat="42.94814" lon="0.15969">
        <ele>2024</ele>
        <time>2015-10-30T12:27:09Z</time>
      </trkpt>
      <trkpt lat="42.94813" lon="0.1597">
        <ele>2024</ele>
        <time>2015-10-30T12:27:15Z</time>
      </trkpt>
      <trkpt lat="42.94811" lon="0.15971">
        <ele>2024</ele>
        <time>2015-10-30T12:27:17Z</time>
      </trkpt>
      <trkpt lat="42.94791" lon="0.15981">
        <ele>2021</ele>
        <time>2015-10-30T12:27:37Z</time>
      </trkpt>
      <trkpt lat="42.94789" lon="0.15986">
        <ele>2020</ele>
        <time>2015-10-30T12:27:41Z</time>
      </trkpt>
      <trkpt lat="42.94783" lon="0.15991">
        <ele>2019</ele>
        <time>2015-10-30T12:27:47Z</time>
      </trkpt>
      <trkpt lat="42.94782" lon="0.15994">
        <ele>2019</ele>
        <time>2015-10-30T12:27:49Z</time>
      </trkpt>
      <trkpt lat="42.94783" lon="0.15998">
        <ele>2019</ele>
        <time>2015-10-30T12:27:51Z</time>
      </trkpt>
      <trkpt lat="42.94782" lon="0.16003">
        <ele>2019</ele>
        <time>2015-10-30T12:27:55Z</time>
      </trkpt>
      <trkpt lat="42.94776" lon="0.16046">
        <ele>2016</ele>
        <time>2015-10-30T12:28:25Z</time>
      </trkpt>
      <trkpt lat="42.94762" lon="0.16088">
        <ele>2015</ele>
        <time>2015-10-30T12:28:56Z</time>
      </trkpt>
      <trkpt lat="42.94757" lon="0.16125">
        <ele>2010</ele>
        <time>2015-10-30T12:29:27Z</time>
      </trkpt>
      <trkpt lat="42.94749" lon="0.16151">
        <ele>2004</ele>
        <time>2015-10-30T12:29:49Z</time>
      </trkpt>
      <trkpt lat="42.94745" lon="0.16153">
        <ele>2002</ele>
        <time>2015-10-30T12:29:54Z</time>
      </trkpt>
      <trkpt lat="42.94744" lon="0.16154">
        <ele>2002</ele>
        <time>2015-10-30T12:29:56Z</time>
      </trkpt>
      <trkpt lat="42.94743" lon="0.16156">
        <ele>2002</ele>
        <time>2015-10-30T12:29:59Z</time>
      </trkpt>
      <trkpt lat="42.94742" lon="0.16157">
        <ele>2001</ele>
        <time>2015-10-30T12:30:02Z</time>
      </trkpt>
      <trkpt lat="42.94739" lon="0.16168">
        <ele>1997</ele>
        <time>2015-10-30T12:30:14Z</time>
      </trkpt>
      <trkpt lat="42.94732" lon="0.16178">
        <ele>1994</ele>
        <time>2015-10-30T12:30:28Z</time>
      </trkpt>
      <trkpt lat="42.94717" lon="0.16188">
        <ele>1990</ele>
        <time>2015-10-30T12:30:58Z</time>
      </trkpt>
      <trkpt lat="42.94715" lon="0.16189">
        <ele>1989</ele>
        <time>2015-10-30T12:31:00Z</time>
      </trkpt>
      <trkpt lat="42.94681" lon="0.16179">
        <ele>1985</ele>
        <time>2015-10-30T12:31:31Z</time>
      </trkpt>
      <trkpt lat="42.94652" lon="0.16159">
        <ele>1988</ele>
        <time>2015-10-30T12:32:01Z</time>
      </trkpt>
      <trkpt lat="42.9465" lon="0.16157">
        <ele>1988</ele>
        <time>2015-10-30T12:32:03Z</time>
      </trkpt>
      <trkpt lat="42.94647" lon="0.16155">
        <ele>1989</ele>
        <time>2015-10-30T12:32:07Z</time>
      </trkpt>
      <trkpt lat="42.94645" lon="0.16153">
        <ele>1990</ele>
        <time>2015-10-30T12:32:10Z</time>
      </trkpt>
      <trkpt lat="42.94644" lon="0.16152">
        <ele>1990</ele>
        <time>2015-10-30T12:32:12Z</time>
      </trkpt>
      <trkpt lat="42.94643" lon="0.16151">
        <ele>1990</ele>
        <time>2015-10-30T12:32:14Z</time>
      </trkpt>
      <trkpt lat="42.94632" lon="0.16138">
        <ele>1994</ele>
        <time>2015-10-30T12:32:33Z</time>
      </trkpt>
      <trkpt lat="42.94631" lon="0.16136">
        <ele>1993</ele>
        <time>2015-10-30T12:33:07Z</time>
      </trkpt>
      <trkpt lat="42.94629" lon="0.16117">
        <ele>1989</ele>
        <time>2015-10-30T12:33:19Z</time>
      </trkpt>
      <trkpt lat="42.94627" lon="0.16115">
        <ele>1988</ele>
        <time>2015-10-30T12:33:21Z</time>
      </trkpt>
      <trkpt lat="42.94625" lon="0.16116">
        <ele>1988</ele>
        <time>2015-10-30T12:33:23Z</time>
      </trkpt>
      <trkpt lat="42.94621" lon="0.1612">
        <ele>1986</ele>
        <time>2015-10-30T12:33:27Z</time>
      </trkpt>
      <trkpt lat="42.9462" lon="0.16118">
        <ele>1985</ele>
        <time>2015-10-30T12:33:29Z</time>
      </trkpt>
      <trkpt lat="42.94619" lon="0.16116">
        <ele>1985</ele>
        <time>2015-10-30T12:33:31Z</time>
      </trkpt>
      <trkpt lat="42.94617" lon="0.16115">
        <ele>1984</ele>
        <time>2015-10-30T12:33:33Z</time>
      </trkpt>
      <trkpt lat="42.94616" lon="0.16115">
        <ele>1983</ele>
        <time>2015-10-30T12:33:37Z</time>
      </trkpt>
      <trkpt lat="42.94605" lon="0.16102">
        <ele>1979</ele>
        <time>2015-10-30T12:33:52Z</time>
      </trkpt>
      <trkpt lat="42.94602" lon="0.16102">
        <ele>1977</ele>
        <time>2015-10-30T12:33:59Z</time>
      </trkpt>
      <trkpt lat="42.94596" lon="0.16098">
        <ele>1974</ele>
        <time>2015-10-30T12:34:07Z</time>
      </trkpt>
      <trkpt lat="42.94595" lon="0.16097">
        <ele>1974</ele>
        <time>2015-10-30T12:34:09Z</time>
      </trkpt>
      <trkpt lat="42.94595" lon="0.16093">
        <ele>1973</ele>
        <time>2015-10-30T12:34:12Z</time>
      </trkpt>
      <trkpt lat="42.94593" lon="0.16091">
        <ele>1972</ele>
        <time>2015-10-30T12:34:15Z</time>
      </trkpt>
      <trkpt lat="42.94579" lon="0.16083">
        <ele>1966</ele>
        <time>2015-10-30T12:34:36Z</time>
      </trkpt>
      <trkpt lat="42.94577" lon="0.16083">
        <ele>1965</ele>
        <time>2015-10-30T12:34:39Z</time>
      </trkpt>
      <trkpt lat="42.94571" lon="0.16087">
        <ele>1962</ele>
        <time>2015-10-30T12:34:51Z</time>
      </trkpt>
      <trkpt lat="42.94569" lon="0.16086">
        <ele>1961</ele>
        <time>2015-10-30T12:34:54Z</time>
      </trkpt>
      <trkpt lat="42.94547" lon="0.16093">
        <ele>1950</ele>
        <time>2015-10-30T12:35:24Z</time>
      </trkpt>
      <trkpt lat="42.94545" lon="0.16092">
        <ele>1950</ele>
        <time>2015-10-30T12:35:26Z</time>
      </trkpt>
      <trkpt lat="42.94544" lon="0.16093">
        <ele>1948</ele>
        <time>2015-10-30T12:35:28Z</time>
      </trkpt>
      <trkpt lat="42.94542" lon="0.16095">
        <ele>1948</ele>
        <time>2015-10-30T12:35:31Z</time>
      </trkpt>
      <trkpt lat="42.94519" lon="0.16105">
        <ele>1939</ele>
        <time>2015-10-30T12:36:01Z</time>
      </trkpt>
      <trkpt lat="42.94515" lon="0.16107">
        <ele>1937</ele>
        <time>2015-10-30T12:36:05Z</time>
      </trkpt>
      <trkpt lat="42.94501" lon="0.16107">
        <ele>1935</ele>
        <time>2015-10-30T12:36:21Z</time>
      </trkpt>
      <trkpt lat="42.94499" lon="0.16106">
        <ele>1935</ele>
        <time>2015-10-30T12:36:23Z</time>
      </trkpt>
      <trkpt lat="42.94498" lon="0.16105">
        <ele>1934</ele>
        <time>2015-10-30T12:36:25Z</time>
      </trkpt>
      <trkpt lat="42.94473" lon="0.16105">
        <ele>1926</ele>
        <time>2015-10-30T12:36:56Z</time>
      </trkpt>
      <trkpt lat="42.9445" lon="0.16119">
        <ele>1918</ele>
        <time>2015-10-30T12:37:26Z</time>
      </trkpt>
      <trkpt lat="42.94443" lon="0.16122">
        <ele>1915</ele>
        <time>2015-10-30T12:37:34Z</time>
      </trkpt>
      <trkpt lat="42.94415" lon="0.16133">
        <ele>1909</ele>
        <time>2015-10-30T12:38:05Z</time>
      </trkpt>
      <trkpt lat="42.94409" lon="0.16135">
        <ele>1908</ele>
        <time>2015-10-30T12:38:11Z</time>
      </trkpt>
      <trkpt lat="42.94406" lon="0.16143">
        <ele>1907</ele>
        <time>2015-10-30T12:38:18Z</time>
      </trkpt>
      <trkpt lat="42.94404" lon="0.16144">
        <ele>1907</ele>
        <time>2015-10-30T12:38:20Z</time>
      </trkpt>
      <trkpt lat="42.94402" lon="0.16144">
        <ele>1907</ele>
        <time>2015-10-30T12:38:22Z</time>
      </trkpt>
      <trkpt lat="42.944" lon="0.16144">
        <ele>1907</ele>
        <time>2015-10-30T12:38:24Z</time>
      </trkpt>
      <trkpt lat="42.94398" lon="0.16144">
        <ele>1906</ele>
        <time>2015-10-30T12:38:27Z</time>
      </trkpt>
      <trkpt lat="42.9437" lon="0.16166">
        <ele>1903</ele>
        <time>2015-10-30T12:38:58Z</time>
      </trkpt>
      <trkpt lat="42.94347" lon="0.16203">
        <ele>1901</ele>
        <time>2015-10-30T12:39:28Z</time>
      </trkpt>
      <trkpt lat="42.94333" lon="0.16235">
        <ele>1897</ele>
        <time>2015-10-30T12:39:56Z</time>
      </trkpt>
      <trkpt lat="42.94331" lon="0.16234">
        <ele>1897</ele>
        <time>2015-10-30T12:39:59Z</time>
      </trkpt>
      <trkpt lat="42.94329" lon="0.16234">
        <ele>1897</ele>
        <time>2015-10-30T12:40:57Z</time>
      </trkpt>
      <trkpt lat="42.94314" lon="0.16226">
        <ele>1899</ele>
        <time>2015-10-30T12:41:14Z</time>
      </trkpt>
      <trkpt lat="42.94299" lon="0.1623">
        <ele>1898</ele>
        <time>2015-10-30T12:41:26Z</time>
      </trkpt>
      <trkpt lat="42.94285" lon="0.16217">
        <ele>1897</ele>
        <time>2015-10-30T12:41:42Z</time>
      </trkpt>
      <trkpt lat="42.94283" lon="0.16217">
        <ele>1897</ele>
        <time>2015-10-30T12:41:44Z</time>
      </trkpt>
      <trkpt lat="42.94281" lon="0.16217">
        <ele>1896</ele>
        <time>2015-10-30T12:41:46Z</time>
      </trkpt>
      <trkpt lat="42.94268" lon="0.16213">
        <ele>1893</ele>
        <time>2015-10-30T12:42:00Z</time>
      </trkpt>
      <trkpt lat="42.94238" lon="0.16223">
        <ele>1885</ele>
        <time>2015-10-30T12:42:31Z</time>
      </trkpt>
      <trkpt lat="42.94209" lon="0.16235">
        <ele>1876</ele>
        <time>2015-10-30T12:43:02Z</time>
      </trkpt>
      <trkpt lat="42.94204" lon="0.16242">
        <ele>1875</ele>
        <time>2015-10-30T12:43:10Z</time>
      </trkpt>
      <trkpt lat="42.94179" lon="0.16244">
        <ele>1867</ele>
        <time>2015-10-30T12:43:41Z</time>
      </trkpt>
      <trkpt lat="42.94151" lon="0.1623">
        <ele>1861</ele>
        <time>2015-10-30T12:44:13Z</time>
      </trkpt>
      <trkpt lat="42.94149" lon="0.16229">
        <ele>1861</ele>
        <time>2015-10-30T12:44:15Z</time>
      </trkpt>
      <trkpt lat="42.94148" lon="0.16227">
        <ele>1860</ele>
        <time>2015-10-30T12:44:17Z</time>
      </trkpt>
      <trkpt lat="42.94118" lon="0.16214">
        <ele>1854</ele>
        <time>2015-10-30T12:44:48Z</time>
      </trkpt>
      <trkpt lat="42.94087" lon="0.16204">
        <ele>1849</ele>
        <time>2015-10-30T12:45:18Z</time>
      </trkpt>
      <trkpt lat="42.94085" lon="0.16204">
        <ele>1848</ele>
        <time>2015-10-30T12:45:20Z</time>
      </trkpt>
      <trkpt lat="42.94083" lon="0.16203">
        <ele>1848</ele>
        <time>2015-10-30T12:45:22Z</time>
      </trkpt>
      <trkpt lat="42.94053" lon="0.16194">
        <ele>1841</ele>
        <time>2015-10-30T12:45:52Z</time>
      </trkpt>
      <trkpt lat="42.94023" lon="0.16195">
        <ele>1832</ele>
        <time>2015-10-30T12:46:23Z</time>
      </trkpt>
      <trkpt lat="42.94021" lon="0.16196">
        <ele>1832</ele>
        <time>2015-10-30T12:46:25Z</time>
      </trkpt>
      <trkpt lat="42.94019" lon="0.16198">
        <ele>1831</ele>
        <time>2015-10-30T12:46:28Z</time>
      </trkpt>
      <trkpt lat="42.93993" lon="0.16206">
        <ele>1822</ele>
        <time>2015-10-30T12:46:59Z</time>
      </trkpt>
      <trkpt lat="42.9399" lon="0.16207">
        <ele>1822</ele>
        <time>2015-10-30T12:47:02Z</time>
      </trkpt>
      <trkpt lat="42.93987" lon="0.16207">
        <ele>1820</ele>
        <time>2015-10-30T12:47:06Z</time>
      </trkpt>
      <trkpt lat="42.93983" lon="0.16208">
        <ele>1819</ele>
        <time>2015-10-30T12:47:11Z</time>
      </trkpt>
      <trkpt lat="42.93982" lon="0.16208">
        <ele>1818</ele>
        <time>2015-10-30T12:47:13Z</time>
      </trkpt>
      <trkpt lat="42.9398" lon="0.16208">
        <ele>1818</ele>
        <time>2015-10-30T12:47:15Z</time>
      </trkpt>
      <trkpt lat="42.93979" lon="0.16209">
        <ele>1818</ele>
        <time>2015-10-30T12:47:17Z</time>
      </trkpt>
      <trkpt lat="42.93977" lon="0.16209">
        <ele>1817</ele>
        <time>2015-10-30T12:47:19Z</time>
      </trkpt>
      <trkpt lat="42.93974" lon="0.16209">
        <ele>1816</ele>
        <time>2015-10-30T12:47:24Z</time>
      </trkpt>
      <trkpt lat="42.93972" lon="0.16207">
        <ele>1814</ele>
        <time>2015-10-30T12:47:27Z</time>
      </trkpt>
      <trkpt lat="42.93945" lon="0.16207">
        <ele>1806</ele>
        <time>2015-10-30T12:47:58Z</time>
      </trkpt>
      <trkpt lat="42.93918" lon="0.16207">
        <ele>1799</ele>
        <time>2015-10-30T12:48:28Z</time>
      </trkpt>
      <trkpt lat="42.93914" lon="0.16206">
        <ele>1798</ele>
        <time>2015-10-30T12:48:33Z</time>
      </trkpt>
      <trkpt lat="42.93908" lon="0.16207">
        <ele>1796</ele>
        <time>2015-10-30T12:48:39Z</time>
      </trkpt>
      <trkpt lat="42.93905" lon="0.16211">
        <ele>1796</ele>
        <time>2015-10-30T12:48:43Z</time>
      </trkpt>
      <trkpt lat="42.939" lon="0.16211">
        <ele>1795</ele>
        <time>2015-10-30T12:48:47Z</time>
      </trkpt>
      <trkpt lat="42.93879" lon="0.1622">
        <ele>1793</ele>
        <time>2015-10-30T12:49:10Z</time>
      </trkpt>
      <trkpt lat="42.93882" lon="0.16221">
        <ele>1793</ele>
        <time>2015-10-30T12:49:40Z</time>
      </trkpt>
      <trkpt lat="42.9388" lon="0.16223">
        <ele>1796</ele>
        <time>2015-10-30T12:50:32Z</time>
      </trkpt>
      <trkpt lat="42.93851" lon="0.16223">
        <ele>1784</ele>
        <time>2015-10-30T12:51:02Z</time>
      </trkpt>
      <trkpt lat="42.93849" lon="0.16222">
        <ele>1783</ele>
        <time>2015-10-30T12:51:05Z</time>
      </trkpt>
      <trkpt lat="42.93847" lon="0.16223">
        <ele>1783</ele>
        <time>2015-10-30T12:51:08Z</time>
      </trkpt>
      <trkpt lat="42.93843" lon="0.16221">
        <ele>1782</ele>
        <time>2015-10-30T12:51:14Z</time>
      </trkpt>
      <trkpt lat="42.9384" lon="0.16221">
        <ele>1781</ele>
        <time>2015-10-30T12:51:17Z</time>
      </trkpt>
      <trkpt lat="42.9381" lon="0.16217">
        <ele>1769</ele>
        <time>2015-10-30T12:51:48Z</time>
      </trkpt>
      <trkpt lat="42.93808" lon="0.16217">
        <ele>1769</ele>
        <time>2015-10-30T12:51:50Z</time>
      </trkpt>
      <trkpt lat="42.93806" lon="0.16219">
        <ele>1768</ele>
        <time>2015-10-30T12:51:52Z</time>
      </trkpt>
      <trkpt lat="42.93788" lon="0.16244">
        <ele>1765</ele>
        <time>2015-10-30T12:52:15Z</time>
      </trkpt>
      <trkpt lat="42.93779" lon="0.16249">
        <ele>1764</ele>
        <time>2015-10-30T12:52:26Z</time>
      </trkpt>
      <trkpt lat="42.93777" lon="0.16246">
        <ele>1764</ele>
        <time>2015-10-30T12:52:30Z</time>
      </trkpt>
      <trkpt lat="42.93775" lon="0.16247">
        <ele>1764</ele>
        <time>2015-10-30T12:52:33Z</time>
      </trkpt>
      <trkpt lat="42.93773" lon="0.16249">
        <ele>1764</ele>
        <time>2015-10-30T12:52:36Z</time>
      </trkpt>
      <trkpt lat="42.93771" lon="0.16247">
        <ele>1762</ele>
        <time>2015-10-30T12:52:39Z</time>
      </trkpt>
      <trkpt lat="42.93769" lon="0.16246">
        <ele>1761</ele>
        <time>2015-10-30T12:52:42Z</time>
      </trkpt>
      <trkpt lat="42.93742" lon="0.16266">
        <ele>1754</ele>
        <time>2015-10-30T12:53:12Z</time>
      </trkpt>
      <trkpt lat="42.93738" lon="0.16265">
        <ele>1753</ele>
        <time>2015-10-30T12:53:16Z</time>
      </trkpt>
      <trkpt lat="42.93736" lon="0.16266">
        <ele>1753</ele>
        <time>2015-10-30T12:53:18Z</time>
      </trkpt>
      <trkpt lat="42.93734" lon="0.16267">
        <ele>1750</ele>
        <time>2015-10-30T12:53:21Z</time>
      </trkpt>
      <trkpt lat="42.93729" lon="0.16268">
        <ele>1750</ele>
        <time>2015-10-30T12:53:27Z</time>
      </trkpt>
      <trkpt lat="42.93701" lon="0.16286">
        <ele>1740</ele>
        <time>2015-10-30T12:53:58Z</time>
      </trkpt>
      <trkpt lat="42.93688" lon="0.16284">
        <ele>1737</ele>
        <time>2015-10-30T12:54:09Z</time>
      </trkpt>
      <trkpt lat="42.93686" lon="0.16286">
        <ele>1738</ele>
        <time>2015-10-30T12:54:29Z</time>
      </trkpt>
      <trkpt lat="42.93683" lon="0.16286">
        <ele>1739</ele>
        <time>2015-10-30T12:57:31Z</time>
      </trkpt>
      <trkpt lat="42.93681" lon="0.16286">
        <ele>1739</ele>
        <time>2015-10-30T12:57:33Z</time>
      </trkpt>
      <trkpt lat="42.93679" lon="0.16283">
        <ele>1739</ele>
        <time>2015-10-30T12:57:36Z</time>
      </trkpt>
      <trkpt lat="42.93677" lon="0.1628">
        <ele>1736</ele>
        <time>2015-10-30T12:57:39Z</time>
      </trkpt>
      <trkpt lat="42.93675" lon="0.16279">
        <ele>1735</ele>
        <time>2015-10-30T12:57:42Z</time>
      </trkpt>
      <trkpt lat="42.93672" lon="0.1628">
        <ele>1735</ele>
        <time>2015-10-30T12:57:45Z</time>
      </trkpt>
      <trkpt lat="42.93668" lon="0.16282">
        <ele>1733</ele>
        <time>2015-10-30T12:57:49Z</time>
      </trkpt>
      <trkpt lat="42.93661" lon="0.16283">
        <ele>1733</ele>
        <time>2015-10-30T12:57:55Z</time>
      </trkpt>
      <trkpt lat="42.93631" lon="0.16296">
        <ele>1730</ele>
        <time>2015-10-30T12:58:27Z</time>
      </trkpt>
      <trkpt lat="42.9361" lon="0.16311">
        <ele>1728</ele>
        <time>2015-10-30T12:59:00Z</time>
      </trkpt>
      <trkpt lat="42.93593" lon="0.16334">
        <ele>1729</ele>
        <time>2015-10-30T12:59:30Z</time>
      </trkpt>
      <trkpt lat="42.93574" lon="0.16366">
        <ele>1727</ele>
        <time>2015-10-30T13:00:01Z</time>
      </trkpt>
      <trkpt lat="42.93568" lon="0.16388">
        <ele>1723</ele>
        <time>2015-10-30T13:00:19Z</time>
      </trkpt>
      <trkpt lat="42.93566" lon="0.16389">
        <ele>1723</ele>
        <time>2015-10-30T13:00:21Z</time>
      </trkpt>
      <trkpt lat="42.93564" lon="0.16392">
        <ele>1722</ele>
        <time>2015-10-30T13:00:25Z</time>
      </trkpt>
      <trkpt lat="42.93564" lon="0.16418">
        <ele>1717</ele>
        <time>2015-10-30T13:00:43Z</time>
      </trkpt>
      <trkpt lat="42.93566" lon="0.16429">
        <ele>1717</ele>
        <time>2015-10-30T13:00:49Z</time>
      </trkpt>
      <trkpt lat="42.93565" lon="0.16435">
        <ele>1717</ele>
        <time>2015-10-30T13:00:53Z</time>
      </trkpt>
      <trkpt lat="42.93563" lon="0.16437">
        <ele>1717</ele>
        <time>2015-10-30T13:00:55Z</time>
      </trkpt>
      <trkpt lat="42.93559" lon="0.16439">
        <ele>1716</ele>
        <time>2015-10-30T13:00:59Z</time>
      </trkpt>
      <trkpt lat="42.93538" lon="0.16472">
        <ele>1713</ele>
        <time>2015-10-30T13:01:29Z</time>
      </trkpt>
      <trkpt lat="42.93513" lon="0.16499">
        <ele>1708</ele>
        <time>2015-10-30T13:01:59Z</time>
      </trkpt>
      <trkpt lat="42.93488" lon="0.16526">
        <ele>1702</ele>
        <time>2015-10-30T13:02:29Z</time>
      </trkpt>
      <trkpt lat="42.9346" lon="0.16551">
        <ele>1700</ele>
        <time>2015-10-30T13:02:59Z</time>
      </trkpt>
      <trkpt lat="42.9344" lon="0.16592">
        <ele>1691</ele>
        <time>2015-10-30T13:03:31Z</time>
      </trkpt>
      <trkpt lat="42.93417" lon="0.16632">
        <ele>1687</ele>
        <time>2015-10-30T13:04:02Z</time>
      </trkpt>
      <trkpt lat="42.93413" lon="0.16639">
        <ele>1684</ele>
        <time>2015-10-30T13:04:08Z</time>
      </trkpt>
      <trkpt lat="42.93409" lon="0.1665">
        <ele>1685</ele>
        <time>2015-10-30T13:04:15Z</time>
      </trkpt>
      <trkpt lat="42.93403" lon="0.16657">
        <ele>1683</ele>
        <time>2015-10-30T13:04:23Z</time>
      </trkpt>
      <trkpt lat="42.93383" lon="0.16691">
        <ele>1681</ele>
        <time>2015-10-30T13:04:53Z</time>
      </trkpt>
      <trkpt lat="42.93381" lon="0.16694">
        <ele>1681</ele>
        <time>2015-10-30T13:04:56Z</time>
      </trkpt>
      <trkpt lat="42.93366" lon="0.16733">
        <ele>1678</ele>
        <time>2015-10-30T13:05:26Z</time>
      </trkpt>
      <trkpt lat="42.93348" lon="0.16772">
        <ele>1672</ele>
        <time>2015-10-30T13:05:56Z</time>
      </trkpt>
      <trkpt lat="42.93347" lon="0.16777">
        <ele>1672</ele>
        <time>2015-10-30T13:05:59Z</time>
      </trkpt>
      <trkpt lat="42.93342" lon="0.16785">
        <ele>1670</ele>
        <time>2015-10-30T13:06:06Z</time>
      </trkpt>
      <trkpt lat="42.9333" lon="0.16799">
        <ele>1671</ele>
        <time>2015-10-30T13:06:18Z</time>
      </trkpt>
      <trkpt lat="42.93319" lon="0.16806">
        <ele>1663</ele>
        <time>2015-10-30T13:06:28Z</time>
      </trkpt>
      <trkpt lat="42.93297" lon="0.16841">
        <ele>1658</ele>
        <time>2015-10-30T13:06:56Z</time>
      </trkpt>
      <trkpt lat="42.93294" lon="0.16841">
        <ele>1658</ele>
        <time>2015-10-30T13:06:58Z</time>
      </trkpt>
      <trkpt lat="42.93292" lon="0.16843">
        <ele>1657</ele>
        <time>2015-10-30T13:07:00Z</time>
      </trkpt>
      <trkpt lat="42.9328" lon="0.16889">
        <ele>1654</ele>
        <time>2015-10-30T13:07:31Z</time>
      </trkpt>
      <trkpt lat="42.93275" lon="0.16927">
        <ele>1649</ele>
        <time>2015-10-30T13:08:02Z</time>
      </trkpt>
      <trkpt lat="42.93272" lon="0.16948">
        <ele>1644</ele>
        <time>2015-10-30T13:08:19Z</time>
      </trkpt>
      <trkpt lat="42.93271" lon="0.16986">
        <ele>1640</ele>
        <time>2015-10-30T13:08:49Z</time>
      </trkpt>
      <trkpt lat="42.9327" lon="0.17026">
        <ele>1635</ele>
        <time>2015-10-30T13:09:19Z</time>
      </trkpt>
      <trkpt lat="42.93273" lon="0.17076">
        <ele>1632</ele>
        <time>2015-10-30T13:09:49Z</time>
      </trkpt>
      <trkpt lat="42.93272" lon="0.17108">
        <ele>1629</ele>
        <time>2015-10-30T13:10:12Z</time>
      </trkpt>
      <trkpt lat="42.9327" lon="0.17109">
        <ele>1628</ele>
        <time>2015-10-30T13:10:14Z</time>
      </trkpt>
      <trkpt lat="42.93264" lon="0.17137">
        <ele>1624</ele>
        <time>2015-10-30T13:10:35Z</time>
      </trkpt>
      <trkpt lat="42.93264" lon="0.1715">
        <ele>1621</ele>
        <time>2015-10-30T13:10:43Z</time>
      </trkpt>
      <trkpt lat="42.93251" lon="0.17193">
        <ele>1617</ele>
        <time>2015-10-30T13:11:13Z</time>
      </trkpt>
      <trkpt lat="42.93246" lon="0.17241">
        <ele>1610</ele>
        <time>2015-10-30T13:11:43Z</time>
      </trkpt>
      <trkpt lat="42.93239" lon="0.17285">
        <ele>1609</ele>
        <time>2015-10-30T13:12:13Z</time>
      </trkpt>
      <trkpt lat="42.9324" lon="0.17295">
        <ele>1610</ele>
        <time>2015-10-30T13:12:19Z</time>
      </trkpt>
      <trkpt lat="42.93234" lon="0.17308">
        <ele>1608</ele>
        <time>2015-10-30T13:12:29Z</time>
      </trkpt>
      <trkpt lat="42.93235" lon="0.1731">
        <ele>1607</ele>
        <time>2015-10-30T13:12:50Z</time>
      </trkpt>
      <trkpt lat="42.93233" lon="0.17312">
        <ele>1607</ele>
        <time>2015-10-30T13:12:53Z</time>
      </trkpt>
      <trkpt lat="42.93224" lon="0.17326">
        <ele>1604</ele>
        <time>2015-10-30T13:13:11Z</time>
      </trkpt>
      <trkpt lat="42.93221" lon="0.17329">
        <ele>1604</ele>
        <time>2015-10-30T13:13:18Z</time>
      </trkpt>
      <trkpt lat="42.93211" lon="0.17347">
        <ele>1607</ele>
        <time>2015-10-30T13:13:34Z</time>
      </trkpt>
      <trkpt lat="42.93209" lon="0.17349">
        <ele>1607</ele>
        <time>2015-10-30T13:13:42Z</time>
      </trkpt>
      <trkpt lat="42.93201" lon="0.17374">
        <ele>1607</ele>
        <time>2015-10-30T13:14:00Z</time>
      </trkpt>
      <trkpt lat="42.93202" lon="0.1738">
        <ele>1608</ele>
        <time>2015-10-30T13:14:14Z</time>
      </trkpt>
      <trkpt lat="42.93192" lon="0.1742">
        <ele>1605</ele>
        <time>2015-10-30T13:14:44Z</time>
      </trkpt>
      <trkpt lat="42.93183" lon="0.17462">
        <ele>1604</ele>
        <time>2015-10-30T13:15:14Z</time>
      </trkpt>
      <trkpt lat="42.93181" lon="0.17476">
        <ele>1603</ele>
        <time>2015-10-30T13:15:24Z</time>
      </trkpt>
      <trkpt lat="42.93185" lon="0.17489">
        <ele>1603</ele>
        <time>2015-10-30T13:15:34Z</time>
      </trkpt>
      <trkpt lat="42.93183" lon="0.17491">
        <ele>1603</ele>
        <time>2015-10-30T13:15:38Z</time>
      </trkpt>
      <trkpt lat="42.93176" lon="0.17495">
        <ele>1602</ele>
        <time>2015-10-30T13:15:46Z</time>
      </trkpt>
      <trkpt lat="42.93175" lon="0.17497">
        <ele>1602</ele>
        <time>2015-10-30T13:15:48Z</time>
      </trkpt>
      <trkpt lat="42.93175" lon="0.175">
        <ele>1602</ele>
        <time>2015-10-30T13:15:50Z</time>
      </trkpt>
      <trkpt lat="42.93176" lon="0.17506">
        <ele>1602</ele>
        <time>2015-10-30T13:15:54Z</time>
      </trkpt>
      <trkpt lat="42.93181" lon="0.17517">
        <ele>1602</ele>
        <time>2015-10-30T13:16:03Z</time>
      </trkpt>
      <trkpt lat="42.93179" lon="0.17528">
        <ele>1601</ele>
        <time>2015-10-30T13:16:11Z</time>
      </trkpt>
      <trkpt lat="42.93172" lon="0.17537">
        <ele>1601</ele>
        <time>2015-10-30T13:16:19Z</time>
      </trkpt>
      <trkpt lat="42.93165" lon="0.17536">
        <ele>1601</ele>
        <time>2015-10-30T13:16:27Z</time>
      </trkpt>
      <trkpt lat="42.93163" lon="0.17537">
        <ele>1601</ele>
        <time>2015-10-30T13:16:29Z</time>
      </trkpt>
      <trkpt lat="42.93149" lon="0.17574">
        <ele>1599</ele>
        <time>2015-10-30T13:17:00Z</time>
      </trkpt>
      <trkpt lat="42.93141" lon="0.17619">
        <ele>1597</ele>
        <time>2015-10-30T13:17:30Z</time>
      </trkpt>
      <trkpt lat="42.93124" lon="0.17657">
        <ele>1597</ele>
        <time>2015-10-30T13:18:00Z</time>
      </trkpt>
      <trkpt lat="42.93112" lon="0.17701">
        <ele>1594</ele>
        <time>2015-10-30T13:18:31Z</time>
      </trkpt>
      <trkpt lat="42.93093" lon="0.17736">
        <ele>1593</ele>
        <time>2015-10-30T13:19:01Z</time>
      </trkpt>
      <trkpt lat="42.9309" lon="0.1774">
        <ele>1592</ele>
        <time>2015-10-30T13:19:05Z</time>
      </trkpt>
      <trkpt lat="42.93073" lon="0.17776">
        <ele>1587</ele>
        <time>2015-10-30T13:19:35Z</time>
      </trkpt>
      <trkpt lat="42.93055" lon="0.1781">
        <ele>1582</ele>
        <time>2015-10-30T13:20:05Z</time>
      </trkpt>
      <trkpt lat="42.93034" lon="0.17844">
        <ele>1577</ele>
        <time>2015-10-30T13:20:36Z</time>
      </trkpt>
      <trkpt lat="42.93015" lon="0.17878">
        <ele>1574</ele>
        <time>2015-10-30T13:21:06Z</time>
      </trkpt>
      <trkpt lat="42.92995" lon="0.1791">
        <ele>1571</ele>
        <time>2015-10-30T13:21:36Z</time>
      </trkpt>
      <trkpt lat="42.92974" lon="0.17948">
        <ele>1561</ele>
        <time>2015-10-30T13:22:06Z</time>
      </trkpt>
      <trkpt lat="42.9296" lon="0.17988">
        <ele>1555</ele>
        <time>2015-10-30T13:22:37Z</time>
      </trkpt>
      <trkpt lat="42.92962" lon="0.18032">
        <ele>1558</ele>
        <time>2015-10-30T13:23:08Z</time>
      </trkpt>
      <trkpt lat="42.92958" lon="0.18058">
        <ele>1561</ele>
        <time>2015-10-30T13:23:28Z</time>
      </trkpt>
      <trkpt lat="42.92942" lon="0.18084">
        <ele>1561</ele>
        <time>2015-10-30T13:24:00Z</time>
      </trkpt>
      <trkpt lat="42.92941" lon="0.18086">
        <ele>1562</ele>
        <time>2015-10-30T13:24:03Z</time>
      </trkpt>
      <trkpt lat="42.92922" lon="0.18105">
        <ele>1562</ele>
        <time>2015-10-30T13:24:33Z</time>
      </trkpt>
      <trkpt lat="42.92918" lon="0.18115">
        <ele>1561</ele>
        <time>2015-10-30T13:24:45Z</time>
      </trkpt>
      <trkpt lat="42.9291" lon="0.18122">
        <ele>1559</ele>
        <time>2015-10-30T13:24:55Z</time>
      </trkpt>
      <trkpt lat="42.92881" lon="0.18144">
        <ele>1562</ele>
        <time>2015-10-30T13:25:25Z</time>
      </trkpt>
      <trkpt lat="42.92861" lon="0.18175">
        <ele>1562</ele>
        <time>2015-10-30T13:25:56Z</time>
      </trkpt>
      <trkpt lat="42.92842" lon="0.18209">
        <ele>1556</ele>
        <time>2015-10-30T13:26:26Z</time>
      </trkpt>
      <trkpt lat="42.92826" lon="0.18246">
        <ele>1555</ele>
        <time>2015-10-30T13:26:57Z</time>
      </trkpt>
      <trkpt lat="42.92807" lon="0.18282">
        <ele>1552</ele>
        <time>2015-10-30T13:27:28Z</time>
      </trkpt>
      <trkpt lat="42.92801" lon="0.18304">
        <ele>1549</ele>
        <time>2015-10-30T13:27:45Z</time>
      </trkpt>
      <trkpt lat="42.92803" lon="0.18318">
        <ele>1547</ele>
        <time>2015-10-30T13:28:00Z</time>
      </trkpt>
      <trkpt lat="42.92795" lon="0.18358">
        <ele>1542</ele>
        <time>2015-10-30T13:28:30Z</time>
      </trkpt>
      <trkpt lat="42.92794" lon="0.18359">
        <ele>1542</ele>
        <time>2015-10-30T13:28:32Z</time>
      </trkpt>
      <trkpt lat="42.92781" lon="0.18395">
        <ele>1536</ele>
        <time>2015-10-30T13:29:03Z</time>
      </trkpt>
      <trkpt lat="42.92777" lon="0.18403">
        <ele>1535</ele>
        <time>2015-10-30T13:29:10Z</time>
      </trkpt>
      <trkpt lat="42.92773" lon="0.18406">
        <ele>1534</ele>
        <time>2015-10-30T13:29:14Z</time>
      </trkpt>
      <trkpt lat="42.92772" lon="0.18408">
        <ele>1534</ele>
        <time>2015-10-30T13:29:16Z</time>
      </trkpt>
      <trkpt lat="42.92746" lon="0.18433">
        <ele>1529</ele>
        <time>2015-10-30T13:29:46Z</time>
      </trkpt>
      <trkpt lat="42.92717" lon="0.18448">
        <ele>1527</ele>
        <time>2015-10-30T13:30:16Z</time>
      </trkpt>
      <trkpt lat="42.92689" lon="0.1847">
        <ele>1525</ele>
        <time>2015-10-30T13:30:46Z</time>
      </trkpt>
      <trkpt lat="42.92665" lon="0.18503">
        <ele>1518</ele>
        <time>2015-10-30T13:31:17Z</time>
      </trkpt>
      <trkpt lat="42.92648" lon="0.18539">
        <ele>1512</ele>
        <time>2015-10-30T13:31:47Z</time>
      </trkpt>
      <trkpt lat="42.92631" lon="0.18578">
        <ele>1504</ele>
        <time>2015-10-30T13:32:17Z</time>
      </trkpt>
      <trkpt lat="42.9263" lon="0.18584">
        <ele>1504</ele>
        <time>2015-10-30T13:32:21Z</time>
      </trkpt>
      <trkpt lat="42.9262" lon="0.18624">
        <ele>1499</ele>
        <time>2015-10-30T13:32:52Z</time>
      </trkpt>
      <trkpt lat="42.92616" lon="0.18653">
        <ele>1495</ele>
        <time>2015-10-30T13:33:23Z</time>
      </trkpt>
      <trkpt lat="42.92614" lon="0.1866">
        <ele>1492</ele>
        <time>2015-10-30T13:33:31Z</time>
      </trkpt>
      <trkpt lat="42.92614" lon="0.18662">
        <ele>1491</ele>
        <time>2015-10-30T13:33:37Z</time>
      </trkpt>
      <trkpt lat="42.92614" lon="0.18664">
        <ele>1490</ele>
        <time>2015-10-30T13:33:41Z</time>
      </trkpt>
      <trkpt lat="42.9261" lon="0.18704">
        <ele>1482</ele>
        <time>2015-10-30T13:34:08Z</time>
      </trkpt>
      <trkpt lat="42.92611" lon="0.18709">
        <ele>1480</ele>
        <time>2015-10-30T13:34:12Z</time>
      </trkpt>
      <trkpt lat="42.92605" lon="0.18748">
        <ele>1480</ele>
        <time>2015-10-30T13:34:43Z</time>
      </trkpt>
      <trkpt lat="42.92601" lon="0.18768">
        <ele>1473</ele>
        <time>2015-10-30T13:35:01Z</time>
      </trkpt>
      <trkpt lat="42.92597" lon="0.18774">
        <ele>1475</ele>
        <time>2015-10-30T13:35:06Z</time>
      </trkpt>
      <trkpt lat="42.92594" lon="0.18798">
        <ele>1475</ele>
        <time>2015-10-30T13:35:24Z</time>
      </trkpt>
      <trkpt lat="42.92589" lon="0.18808">
        <ele>1473</ele>
        <time>2015-10-30T13:35:34Z</time>
      </trkpt>
      <trkpt lat="42.92592" lon="0.1885">
        <ele>1464</ele>
        <time>2015-10-30T13:36:04Z</time>
      </trkpt>
      <trkpt lat="42.92605" lon="0.18894">
        <ele>1452</ele>
        <time>2015-10-30T13:36:35Z</time>
      </trkpt>
      <trkpt lat="42.92605" lon="0.18942">
        <ele>1447</ele>
        <time>2015-10-30T13:37:05Z</time>
      </trkpt>
      <trkpt lat="42.92602" lon="0.18988">
        <ele>1441</ele>
        <time>2015-10-30T13:37:35Z</time>
      </trkpt>
      <trkpt lat="42.92588" lon="0.19029">
        <ele>1436</ele>
        <time>2015-10-30T13:38:05Z</time>
      </trkpt>
      <trkpt lat="42.92575" lon="0.19063">
        <ele>1429</ele>
        <time>2015-10-30T13:38:35Z</time>
      </trkpt>
      <trkpt lat="42.92562" lon="0.19114">
        <ele>1425</ele>
        <time>2015-10-30T13:39:06Z</time>
      </trkpt>
      <trkpt lat="42.92556" lon="0.19142">
        <ele>1424</ele>
        <time>2015-10-30T13:39:23Z</time>
      </trkpt>
      <trkpt lat="42.92544" lon="0.19191">
        <ele>1416</ele>
        <time>2015-10-30T13:39:53Z</time>
      </trkpt>
      <trkpt lat="42.92536" lon="0.1924">
        <ele>1412</ele>
        <time>2015-10-30T13:40:23Z</time>
      </trkpt>
      <trkpt lat="42.92531" lon="0.19292">
        <ele>1410</ele>
        <time>2015-10-30T13:40:53Z</time>
      </trkpt>
      <trkpt lat="42.92532" lon="0.19297">
        <ele>1409</ele>
        <time>2015-10-30T13:40:57Z</time>
      </trkpt>
      <trkpt lat="42.92533" lon="0.19295">
        <ele>1410</ele>
        <time>2015-10-30T13:40:59Z</time>
      </trkpt>
    </trkseg>
  </trk>
</gpx>